SondeTracker

Meteorological Radiosondes Database

Operations

Sounding was ended - last measurement: 2022-12-06 14:26:32z

MAP
About Radiosonde

Number: S4440286

Launch Site: A Coruña (ES)

Type: RS41

AUX: NO

Frequency: 404.001 MHz

Max Speed: 181 km/h at 33274 m

Average Speed: 42.17 km/h

Max Altitude: 33312 m

Average Ascent Speed: 4.26 m/s

Average Descent Speed: 8.64 m/s

Status: UNKNOWN

Status Changes
Launch Site Type AUX Frequency Status Finder Landing Point Description Changes made by
APRS Statistics

Received Frames: 629

First Frame [UTC]: 2022-12-06 11:17:33z

Last Frame [UTC]: 2022-12-06 14:26:32z

Receivers: CT7AUS-11, EA1JAY-15, EA1JAY-16, EA4EKH-11, EB4FMT-14

Flight Time: 03:08:59 h

Distance From First Measurement: 105.04 km

Nearest City: Ribadeo (ES) [13.26 km]

Nearest Hunter: ea1irt [13.73 km]

Ground Altitude: 146 m

Distance from QTH: 0.00 km

APRS Data
Receiver Number Date/Time [UTC] φ λ Course [°] Speed [km/h] Altitude [m] Description
EA1JAY-16S44402862022-12-06 14:26:3243.4393-7.1409513113853Clb=-3.4m/s p=921.6hPa t=9.6C h=76.1% 404.000MHz Type=RS41-SGP TxOff=7h27m rdzTTGOsonde
EA1JAY-16S44402862022-12-06 14:26:1143.4395-7.1410719415915Clb=-3.2m/s p=914.7hPa t=9.2C h=77.2% 404.000MHz Type=RS41-SGP TxOff=7h28m rdzTTGOsonde
EA1JAY-16S44402862022-12-06 14:25:5043.4401-7.14132037981Clb=-3.3m/s p=907.4hPa t=8.8C h=75.6% 404.000MHz Type=RS41-SGP TxOff=7h28m rdzTTGOsonde
EA1JAY-16S44402862022-12-06 14:25:3043.4405-7.14153193151045Clb=-3.4m/s p=900.4hPa t=8.3C h=79.1% 404.000MHz Type=RS41-SGP TxOff=7h29m rdzTTGOsonde
EA1JAY-16S44402862022-12-06 14:25:0943.441-7.14223101131114Clb=-3.4m/s p=892.8hPa t=7.7C h=80.5% 404.000MHz Type=RS41-SGP TxOff=7h29m rdzTTGOsonde
EA1JAY-16S44402862022-12-06 14:24:4843.4412-7.1428414491189Clb=-3.2m/s p=885.2hPa t=7.1C h=83.4% 404.000MHz Type=RS41-SGP TxOff=7h30m rdzTTGOsonde
EA1JAY-16S44402862022-12-06 14:24:2843.4415-7.143319171254Clb=-3.4m/s p=877.8hPa t=6.6C h=86.0% 404.000MHz Type=RS41-SGP TxOff=7h30m rdzTTGOsonde
EA1JAY-16S44402862022-12-06 14:24:0743.4418-7.14404116191331Clb=-3.6m/s p=869.6hPa t=6.1C h=88.3% 404.000MHz Type=RS41-SGP TxOff=7h30m rdzTTGOsonde
EA1JAY-16S44402862022-12-06 14:23:4643.4422-7.145298191410Clb=-3.9m/s p=861.2hPa t=5.4C h=90.1% 404.000MHz Type=RS41-SGP TxOff=7h31m rdzTTGOsonde
EA1JAY-16S44402862022-12-06 14:23:2643.4422-7.1459219741488Clb=-3.9m/s p=853.1hPa t=4.9C h=91.8% 404.000MHz Type=RS41-SGP TxOff=7h31m rdzTTGOsonde
EA1JAY-16S44402862022-12-06 14:23:0643.4423-7.14614137131567Clb=-3.5m/s p=844.9hPa t=4.3C h=94.1% 404.000MHz Type=RS41-SGP TxOff=7h32m rdzTTGOsonde
EA1JAY-16S44402862022-12-06 14:22:4543.4427-7.1464159131647Clb=-3.7m/s p=836.9hPa t=3.7C h=94.5% 404.000MHz Type=RS41-SGP TxOff=7h32m rdzTTGOsonde
EA1JAY-16S44402862022-12-06 14:22:2443.4429-7.146866691726Clb=-4.4m/s p=828.6hPa t=3.0C h=97.2% 404.000MHz Type=RS41-SGP TxOff=7h32m rdzTTGOsonde
EA1JAY-16S44402862022-12-06 14:22:0443.4428-7.14729137111801Clb=-3.6m/s p=821.1hPa t=2.7C h=91.1% 404.000MHz Type=RS41-SGP TxOff=7h33m rdzTTGOsonde
EA1JAY-16S44402862022-12-06 14:21:4343.4428-7.1474915261878Clb=-3.6m/s p=813.3hPa t=2.0C h=94.0% 404.000MHz Type=RS41-SGP TxOff=7h33m rdzTTGOsonde
EA1JAY-16S44402862022-12-06 14:21:2343.4427-7.148064691954Clb=-3.0m/s p=806.1hPa t=1.4C h=96.3% 404.000MHz Type=RS41-SGP TxOff=7h33m rdzTTGOsonde
EA1JAY-16S44402862022-12-06 14:21:0243.4425-7.148765192027Clb=-3.7m/s p=798.5hPa t=0.8C h=97.1% 404.000MHz Type=RS41-SGP TxOff=7h33m rdzTTGOsonde
EA1JAY-16S44402862022-12-06 14:20:4243.4422-7.1494312132098Clb=-3.6m/s p=791.4hPa t=0.3C h=99.1% 404.000MHz Type=RS41-SGP TxOff=7h33m rdzTTGOsonde
EA1JAY-16S44402862022-12-06 14:20:2143.442-7.14982462175Clb=-3.1m/s p=783.7hPa t=0.0C h=99.8% 404.000MHz Type=RS41-SGP TxOff=7h34m rdzTTGOsonde
EA1JAY-16S44402862022-12-06 14:20:0043.4418-7.150133262245Clb=-3.3m/s p=776.7hPa t=-0.1C h=91.3% 404.000MHz Type=RS41-SGP TxOff=7h34m rdzTTGOsonde
EA1JAY-16S44402862022-12-06 14:19:4043.4414-7.150411342313Clb=-3.3m/s p=770.0hPa t=-0.4C h=92.5% 404.000MHz Type=RS41-SGP TxOff=7h35m rdzTTGOsonde
EA1JAY-16S44402862022-12-06 14:19:1943.4411-7.15066172388Clb=-3.2m/s p=762.7hPa t=-0.8C h=91.0% 404.000MHz Type=RS41-SGP TxOff=7h35m rdzTTGOsonde
EA1JAY-16S44402862022-12-06 14:18:5843.4402-7.1510717202459Clb=-3.5m/s p=755.4hPa t=-0.9C h=88.4% 404.000MHz Type=RS41-SGP TxOff=7h35m rdzTTGOsonde
EA1JAY-16S44402862022-12-06 14:18:3843.4394-7.15121354192533Clb=-4.3m/s p=748.4hPa t=-1.5C h=90.9% 404.000MHz Type=RS41-SGP TxOff=7h36m rdzTTGOsonde
EA1JAY-16S44402862022-12-06 14:18:1843.4384-7.1518212262600Clb=-3.4m/s p=742.1hPa t=-1.4C h=86.9% 404.000MHz Type=RS41-SGP TxOff=7h36m rdzTTGOsonde
EA1JAY-16S44402862022-12-06 14:17:5743.437-7.152839302676Clb=-3.1m/s p=735.4hPa t=-1.1C h=78.4% 404.000MHz Type=RS41-SGP TxOff=7h37m rdzTTGOsonde
EA1JAY-15S44402862022-12-06 14:17:5443.4369-7.15343302688Clb=-3.7m/s p=734.4hPa t=-1.0C h=77.7% 404.000MHz Type=RS41-SGP TxOff=7h37m rdzTTGOsonde
EA1JAY-16S44402862022-12-06 14:17:3643.4357-7.1540754332751Clb=-3.6m/s p=728.5hPa t=-1.5C h=77.5% 404.000MHz Type=RS41-SGP TxOff=7h37m rdzTTGOsonde
EA1JAY-15S44402862022-12-06 14:17:1843.4351-7.1557176202822Clb=-3.8m/s p=722.4hPa t=-2.1C h=80.7% 404.000MHz Type=RS41-SGP TxOff=7h37m rdzTTGOsonde
EA1JAY-16S44402862022-12-06 14:17:1643.4351-7.1557871222825Clb=-3.9m/s p=721.7hPa t=-2.1C h=80.7% 404.000MHz Type=RS41-SGP TxOff=7h37m rdzTTGOsonde
EA1JAY-15S44402862022-12-06 14:16:5743.4348-7.1570970192899Clb=-4.0m/s p=715.2hPa t=-2.0C h=43.9% 404.000MHz Type=RS41-SGP TxOff=7h38m rdzTTGOsonde
EA1JAY-16S44402862022-12-06 14:16:5543.4347-7.1572268202907Clb=-4.3m/s p=714.4hPa t=-2.1C h=43.0% 404.000MHz Type=RS41-SGP TxOff=7h38m rdzTTGOsonde
EA1JAY-15S44402862022-12-06 14:16:3743.4339-7.1584856352975Clb=-3.8m/s p=708.3hPa t=-2.6C h=45.3% 404.000MHz Type=RS41-SGP TxOff=7h38m rdzTTGOsonde
EA1JAY-16S44402862022-12-06 14:16:3543.4339-7.1586756332983Clb=-3.8m/s p=707.6hPa t=-2.6C h=44.5% 404.000MHz Type=RS41-SGP TxOff=7h38m rdzTTGOsonde
EA1JAY-16S44402862022-12-06 14:16:1443.4326-7.1599539313065Clb=-3.7m/s p=700.5hPa t=-2.7C h=40.3% 404.000MHz Type=RS41-SGP TxOff=7h38m rdzTTGOsonde
EA1JAY-15S44402862022-12-06 14:16:1343.4325-7.1600242333068Clb=-3.7m/s p=700.1hPa t=-2.6C h=40.5% 404.000MHz Type=RS41-SGP rdzTTGOsonde
EA1JAY-16S44402862022-12-06 14:15:5443.4316-7.1616661303140Clb=-4.1m/s p=693.7hPa t=-2.7C h=36.9% 404.000MHz Type=RS41-SGP TxOff=7h38m rdzTTGOsonde
EA1JAY-15S44402862022-12-06 14:15:5343.4316-7.1618460303148Clb=-3.9m/s p=693.4hPa t=-2.7C h=36.6% 404.000MHz Type=RS41-SGP rdzTTGOsonde
EA1JAY-16S44402862022-12-06 14:15:3343.431-7.1632560203227Clb=-4.4m/s p=686.4hPa t=-2.6C h=24.6% 404.000MHz Type=RS41-SGP TxOff=7h38m rdzTTGOsonde
EA1JAY-15S44402862022-12-06 14:15:3243.431-7.1632560203227Clb=-4.4m/s p=686.1hPa t=-2.7C h=24.3% 404.000MHz Type=RS41-SGP rdzTTGOsonde
EA1JAY-16S44402862022-12-06 14:15:1243.4305-7.1641931243313Clb=-4.4m/s p=678.9hPa t=-2.9C h=19.0% 404.000MHz Type=RS41-SGP TxOff=7h39m rdzTTGOsonde
EA1JAY-15S44402862022-12-06 14:15:1043.4303-7.1642940283321Clb=-4.3m/s p=678.2hPa t=-2.9C h=18.0% 404.000MHz Type=RS41-SGP TxOff=7h39m rdzTTGOsonde
EA1JAY-16S44402862022-12-06 14:14:5243.4299-7.1655663133396Clb=-3.8m/s p=671.7hPa t=-3.4C h=12.6% 404.000MHz Type=RS41-SGP TxOff=7h39m rdzTTGOsonde
EA1JAY-15S44402862022-12-06 14:14:5043.4299-7.1656254113404Clb=-4.6m/s p=671.0hPa t=-3.5C h=11.2% 404.000MHz Type=RS41-SGP TxOff=7h39m rdzTTGOsonde
EA1JAY-16S44402862022-12-06 14:14:3143.4292-7.1669674313484Clb=-4.2m/s p=664.3hPa t=-4.0C h=10.3% 404.000MHz Type=RS41-SGP TxOff=7h40m rdzTTGOsonde
EA1JAY-15S44402862022-12-06 14:14:2943.4292-7.1671681303492Clb=-4.1m/s p=663.7hPa t=-4.1C h=10.0% 404.000MHz Type=RS41-SGP TxOff=7h40m rdzTTGOsonde
EA1JAY-16S44402862022-12-06 14:14:1143.4291-7.168249223570Clb=-3.8m/s p=657.5hPa t=-4.6C h=11.1% 404.000MHz Type=RS41-SGP TxOff=7h40m rdzTTGOsonde
EA1JAY-15S44402862022-12-06 14:14:0943.429-7.1683350263577Clb=-4.2m/s p=656.8hPa t=-4.6C h=10.2% 404.000MHz Type=RS41-SGP TxOff=7h40m rdzTTGOsonde
EA1JAY-16S44402862022-12-06 14:13:5043.4287-7.1697772113656Clb=-3.9m/s p=650.4hPa t=-4.6C h=7.5% 404.000MHz Type=RS41-SGP TxOff=7h40m rdzTTGOsonde
EA1JAY-15S44402862022-12-06 14:13:4843.4287-7.1698855133669Clb=-4.3m/s p=649.7hPa t=-4.7C h=7.7% 404.000MHz Type=RS41-SGP TxOff=7h40m rdzTTGOsonde
EA1JAY-16S44402862022-12-06 14:13:3043.4283-7.1711298153737Clb=-4.1m/s p=643.8hPa t=-4.8C h=5.3% 404.000MHz Type=RS41-SGP TxOff=7h41m rdzTTGOsonde
EA1JAY-15S44402862022-12-06 14:13:2743.4283-7.171239093749Clb=-3.9m/s p=642.9hPa t=-4.9C h=5.1% 404.000MHz Type=RS41-SGP TxOff=7h41m rdzTTGOsonde
EA1JAY-16S44402862022-12-06 14:13:0943.4278-7.1718972243821Clb=-3.9m/s p=637.1hPa t=-5.3C h=5.5% 404.000MHz Type=RS41-SGP TxOff=7h41m rdzTTGOsonde
EA1JAY-15S44402862022-12-06 14:13:0743.4278-7.1720485203829Clb=-4.1m/s p=636.4hPa t=-5.3C h=5.8% 404.000MHz Type=RS41-SGP TxOff=7h41m rdzTTGOsonde
EA1JAY-16S44402862022-12-06 14:12:4943.4274-7.1727956263898Clb=-3.9m/s p=630.8hPa t=-6.0C h=6.5% 404.000MHz Type=RS41-SGP TxOff=7h42m rdzTTGOsonde
EA1JAY-15S44402862022-12-06 14:12:4643.4273-7.1730371263910Clb=-4.1m/s p=629.8hPa t=-6.1C h=6.9% 404.000MHz Type=RS41-SGP TxOff=7h42m rdzTTGOsonde
EA1JAY-16S44402862022-12-06 14:12:2843.427-7.1738936243983Clb=-4.1m/s p=624.2hPa t=-6.7C h=6.5% 404.000MHz Type=RS41-SGP TxOff=7h42m rdzTTGOsonde
EA1JAY-15S44402862022-12-06 14:12:2643.4269-7.1739540263987Clb=-3.7m/s p=623.5hPa t=-6.8C h=6.7% 404.000MHz Type=RS41-SGP TxOff=7h42m rdzTTGOsonde
EA1JAY-16S44402862022-12-06 14:12:0843.4264-7.1751941284064Clb=-4.2m/s p=617.8hPa t=-7.4C h=6.7% 404.000MHz Type=RS41-SGP TxOff=7h42m rdzTTGOsonde
EA1JAY-15S44402862022-12-06 14:12:0543.4263-7.1753454314072Clb=-3.9m/s p=616.8hPa t=-7.4C h=6.8% 404.000MHz Type=RS41-SGP TxOff=7h42m rdzTTGOsonde
EA1JAY-16S44402862022-12-06 14:11:4743.4259-7.1767170334147Clb=-4.3m/s p=611.0hPa t=-8.0C h=7.2% 404.000MHz Type=RS41-SGP TxOff=7h43m rdzTTGOsonde
EA1JAY-15S44402862022-12-06 14:11:4543.4259-7.1769282304156Clb=-4.1m/s p=610.3hPa t=-8.0C h=8.0% 404.000MHz Type=RS41-SGP TxOff=7h43m rdzTTGOsonde
EA1JAY-16S44402862022-12-06 14:11:2643.4256-7.1784976374237Clb=-3.9m/s p=604.1hPa t=-8.3C h=7.5% 404.000MHz Type=RS41-SGP TxOff=7h43m rdzTTGOsonde
EA1JAY-15S44402862022-12-06 14:11:2543.4255-7.1786183334241Clb=-4.0m/s p=603.7hPa t=-8.4C h=7.6% 404.000MHz Type=RS41-SGP TxOff=7h43m rdzTTGOsonde
EA1JAY-16S44402862022-12-06 14:11:0543.4249-7.180389284325Clb=-4.3m/s p=597.1hPa t=-9.0C h=8.6% 404.000MHz Type=RS41-SGP TxOff=7h44m rdzTTGOsonde
EA1JAY-15S44402862022-12-06 14:10:4443.4243-7.1821667194414Clb=-4.2m/s p=590.4hPa t=-9.7C h=9.6% 404.000MHz Type=RS41-SGP TxOff=7h44m rdzTTGOsonde
EA1JAY-15S44402862022-12-06 14:10:2343.4238-7.1840950284503Clb=-4.1m/s p=583.6hPa t=-10.6C h=9.9% 404.000MHz Type=RS41-SGP TxOff=7h44m rdzTTGOsonde
EA1JAY-16S44402862022-12-06 14:10:0343.4233-7.1860151304589Clb=-4.2m/s p=577.0hPa t=-11.3C h=8.6% 404.000MHz Type=RS41-SGP TxOff=7h44m rdzTTGOsonde
EA1JAY-15S44402862022-12-06 14:10:0243.4233-7.186154334593Clb=-4.1m/s p=576.7hPa t=-11.3C h=8.4% 404.000MHz Type=RS41-SGP TxOff=7h44m rdzTTGOsonde
EA1JAY-16S44402862022-12-06 14:09:4243.4227-7.1879869374680Clb=-4.1m/s p=570.3hPa t=-11.9C h=6.5% 404.000MHz Type=RS41-SGP TxOff=7h44m rdzTTGOsonde
EA1JAY-15S44402862022-12-06 14:09:4143.4226-7.188174374684Clb=-4.1m/s p=570.0hPa t=-11.9C h=6.2% 404.000MHz Type=RS41-SGP TxOff=7h44m rdzTTGOsonde
EA1JAY-16S44402862022-12-06 14:09:2243.422-7.1896277314768Clb=-4.2m/s p=563.9hPa t=-12.2C h=4.3% 404.000MHz Type=RS41-SGP TxOff=7h45m rdzTTGOsonde
EA1JAY-15S44402862022-12-06 14:09:2143.422-7.1897281284772Clb=-4.2m/s p=563.6hPa t=-12.2C h=4.3% 404.000MHz Type=RS41-SGP TxOff=7h45m rdzTTGOsonde
EA1JAY-16S44402862022-12-06 14:09:0243.4213-7.1910975354857Clb=-4.2m/s p=557.2hPa t=-12.7C h=3.1% 404.000MHz Type=RS41-SGP TxOff=7h45m rdzTTGOsonde
EA1JAY-15S44402862022-12-06 14:09:0043.4213-7.1913181314866Clb=-4.4m/s p=556.6hPa t=-12.7C h=3.0% 404.000MHz Type=RS41-SGP TxOff=7h45m rdzTTGOsonde
EA1JAY-16S44402862022-12-06 14:08:4143.4207-7.1930184354952Clb=-4.4m/s p=550.3hPa t=-13.3C h=3.0% 404.000MHz Type=RS41-SGP TxOff=7h45m rdzTTGOsonde
EA1JAY-15S44402862022-12-06 14:08:4043.4207-7.1931286314957Clb=-4.6m/s p=550.0hPa t=-13.4C h=2.9% 404.000MHz Type=RS41-SGP TxOff=7h46m rdzTTGOsonde
EA1JAY-16S44402862022-12-06 14:08:2143.4201-7.1950187265044Clb=-4.4m/s p=543.9hPa t=-14.0C h=2.9% 404.000MHz Type=RS41-SGP TxOff=7h46m rdzTTGOsonde
EA1JAY-15S44402862022-12-06 14:08:1943.4201-7.1951774205052Clb=-4.4m/s p=543.2hPa t=-14.1C h=2.9% 404.000MHz Type=RS41-SGP TxOff=7h46m rdzTTGOsonde
EA1JAY-16S44402862022-12-06 14:08:0043.4194-7.1971678245142Clb=-4.6m/s p=536.8hPa t=-14.8C h=3.3% 404.000MHz Type=RS41-SGP TxOff=7h46m rdzTTGOsonde
EA1JAY-15S44402862022-12-06 14:07:5843.4194-7.1973161225151Clb=-4.8m/s p=536.1hPa t=-14.9C h=3.3% 404.000MHz Type=RS41-SGP TxOff=7h46m rdzTTGOsonde
EA1JAY-16S44402862022-12-06 14:07:3943.4187-7.1992454245243Clb=-4.7m/s p=529.7hPa t=-15.7C h=3.5% 404.000MHz Type=RS41-SGP TxOff=7h47m rdzTTGOsonde
EA1JAY-15S44402862022-12-06 14:07:3843.4187-7.199346285248Clb=-4.7m/s p=529.3hPa t=-15.8C h=3.4% 404.000MHz Type=RS41-SGP TxOff=7h47m rdzTTGOsonde
EA1JAY-16S44402862022-12-06 14:07:1843.4177-7.2013446435350Clb=-4.7m/s p=522.5hPa t=-16.5C h=5.5% 404.000MHz Type=RS41-SGP TxOff=7h47m rdzTTGOsonde
EA1JAY-16S44402862022-12-06 14:06:5843.4167-7.2034866465441Clb=-4.6m/s p=515.8hPa t=-17.3C h=7.3% 404.000MHz Type=RS41-SGP TxOff=7h48m rdzTTGOsonde
EA1JAY-15S44402862022-12-06 14:06:5743.4167-7.2036373445446Clb=-4.6m/s p=515.5hPa t=-17.4C h=7.3% 404.000MHz Type=RS41-SGP TxOff=7h48m rdzTTGOsonde
EA1JAY-16S44402862022-12-06 14:06:3843.4156-7.205973435544Clb=-4.9m/s p=509.2hPa t=-18.1C h=7.0% 404.000MHz Type=RS41-SGP TxOff=7h48m rdzTTGOsonde
EA1JAY-15S44402862022-12-06 14:06:3643.4155-7.2060375395549Clb=-4.9m/s p=508.5hPa t=-18.2C h=6.6% 404.000MHz Type=RS41-SGP TxOff=7h48m rdzTTGOsonde
EB4FMT-14S44402862022-12-06 14:06:3043.4147-7.207663465622Clb=-4.5m/s t=-18.9C h=7.2% p=503.5hPa 404.001 MHz Type=RS41-SGP ser=S4440286 Radiosonde auto_rx v1.5.9
EA1JAY-16S44402862022-12-06 14:06:1843.4146-7.2081274335642Clb=-5.1m/s p=502.5hPa t=-19.0C h=7.4% 404.000MHz Type=RS41-SGP TxOff=7h48m rdzTTGOsonde
EA1JAY-15S44402862022-12-06 14:06:1643.4145-7.2082168305647Clb=-4.6m/s p=501.8hPa t=-19.1C h=7.6% 404.000MHz Type=RS41-SGP TxOff=7h48m rdzTTGOsonde
EB4FMT-14S44402862022-12-06 14:06:0043.4136-7.2103867265742Clb=-4.9m/s t=-19.8C h=6.9% p=495.4hPa 404.001 MHz Type=RS41-SGP ser=S4440286 Radiosonde auto_rx v1.5.9
EA1JAY-16S44402862022-12-06 14:05:5843.4136-7.2103869285742Clb=-4.9m/s p=495.8hPa t=-19.8C h=6.5% 404.000MHz Type=RS41-SGP TxOff=7h49m rdzTTGOsonde
EA1JAY-15S44402862022-12-06 14:05:5643.4136-7.2104760265746Clb=-4.4m/s p=495.1hPa t=-19.8C h=7.8% 404.000MHz Type=RS41-SGP TxOff=7h49m rdzTTGOsonde
EA1JAY-16S44402862022-12-06 14:05:3843.4128-7.2125180245840Clb=-4.9m/s p=489.2hPa t=-20.6C h=12.2% 404.000MHz Type=RS41-SGP TxOff=7h49m rdzTTGOsonde
EA1JAY-15S44402862022-12-06 14:05:3543.4128-7.2126661245850Clb=-4.8m/s p=488.2hPa t=-20.8C h=12.4% 404.000MHz Type=RS41-SGP TxOff=7h49m rdzTTGOsonde
EB4FMT-14S44402862022-12-06 14:05:3043.4124-7.2133874435883Clb=-5.0m/s t=-21.2C h=12.3% p=486.2hPa 404.001 MHz Type=RS41-SGP ser=S4440286 Radiosonde auto_rx v1.5.9
EA1JAY-16S44402862022-12-06 14:05:1743.4123-7.214552285939Clb=-4.9m/s p=482.4hPa t=-21.5C h=14.7% 404.000MHz Type=RS41-SGP TxOff=7h49m rdzTTGOsonde
EA1JAY-15S44402862022-12-06 14:05:1543.4122-7.2146757355949Clb=-4.4m/s p=481.8hPa t=-21.6C h=16.1% 404.000MHz Type=RS41-SGP TxOff=7h50m rdzTTGOsonde
EB4FMT-14S44402862022-12-06 14:05:0043.4117-7.2165275436033Clb=-4.6m/s t=-22.4C h=21.3% p=476.2hPa 404.001 MHz Type=RS41-SGP ser=S4440286 Radiosonde auto_rx v1.5.9
EA1JAY-16S44402862022-12-06 14:04:5643.4117-7.216888416043Clb=-4.7m/s p=475.6hPa t=-22.5C h=21.5% 404.000MHz Type=RS41-SGP TxOff=7h50m rdzTTGOsonde
EA1JAY-15S44402862022-12-06 14:04:5543.4117-7.2169491396048Clb=-5.1m/s p=475.3hPa t=-22.5C h=21.7% 404.000MHz Type=RS41-SGP TxOff=7h50m rdzTTGOsonde
EA1JAY-16S44402862022-12-06 14:04:3643.4112-7.2190193306144Clb=-4.9m/s p=469.2hPa t=-23.4C h=28.8% 404.000MHz Type=RS41-SGP TxOff=7h50m rdzTTGOsonde
EA1JAY-15S44402862022-12-06 14:04:3543.4112-7.219189246149Clb=-4.9m/s p=468.8hPa t=-23.4C h=28.9% 404.000MHz Type=RS41-SGP TxOff=7h50m rdzTTGOsonde
EB4FMT-14S44402862022-12-06 14:04:3043.4109-7.2197661416189Clb=-4.4m/s t=-23.7C h=30.7% p=466.3hPa 404.001 MHz Type=RS41-SGP ser=S4440286 Radiosonde auto_rx v1.5.9
EA1JAY-16S44402862022-12-06 14:04:1643.4107-7.2210452246243Clb=-5.2m/s p=462.9hPa t=-24.1C h=27.8% 404.000MHz Type=RS41-SGP TxOff=7h50m rdzTTGOsonde
EA1JAY-15S44402862022-12-06 14:04:1443.4106-7.2211746306253Clb=-5.2m/s p=462.2hPa t=-24.2C h=28.1% 404.000MHz Type=RS41-SGP TxOff=7h50m rdzTTGOsonde
EB4FMT-14S44402862022-12-06 14:04:0043.4099-7.2229165206333Clb=-4.8m/s t=-24.9C h=30.7% p=457.1hPa 404.001 MHz Type=RS41-SGP ser=S4440286 Radiosonde auto_rx v1.5.9
EA1JAY-16S44402862022-12-06 14:03:5543.4098-7.2230941286348Clb=-5.0m/s p=456.2hPa t=-25.0C h=31.2% 404.000MHz Type=RS41-SGP TxOff=7h50m rdzTTGOsonde
EA1JAY-15S44402862022-12-06 14:03:5443.4098-7.2231640316353Clb=-5.1m/s p=455.8hPa t=-25.1C h=31.4% 404.000MHz Type=RS41-SGP TxOff=7h50m rdzTTGOsonde
EA1JAY-16S44402862022-12-06 14:03:3443.4088-7.2252160466450Clb=-4.5m/s p=449.7hPa t=-26.0C h=33.3% 404.000MHz Type=RS41-SGP TxOff=7h51m rdzTTGOsonde
EA1JAY-15S44402862022-12-06 14:03:3343.4087-7.225571446460Clb=-4.9m/s p=449.4hPa t=-26.0C h=33.2% 404.000MHz Type=RS41-SGP TxOff=7h51m rdzTTGOsonde
EB4FMT-14S44402862022-12-06 14:03:3043.4086-7.2260180306479Clb=-5.0m/s t=-26.3C h=34.0% p=448.0hPa 404.001 MHz Type=RS41-SGP ser=S4440286 Radiosonde auto_rx v1.5.9
EA1JAY-16S44402862022-12-06 14:03:1443.4079-7.227359486550Clb=-5.4m/s p=443.6hPa t=-26.9C h=34.7% 404.000MHz Type=RS41-SGP TxOff=7h51m rdzTTGOsonde
EA1JAY-15S44402862022-12-06 14:03:1243.4078-7.227666486560Clb=-4.6m/s p=442.9hPa t=-27.0C h=34.2% 404.000MHz Type=RS41-SGP TxOff=7h51m rdzTTGOsonde
EB4FMT-14S44402862022-12-06 14:03:0043.4071-7.2292245466633Clb=-5.1m/s t=-27.6C h=30.4% p=438.5hPa 404.001 MHz Type=RS41-SGP ser=S4440286 Radiosonde auto_rx v1.5.9
EA1JAY-16S44402862022-12-06 14:02:5443.4068-7.2295948526648Clb=-5.0m/s p=437.6hPa t=-27.6C h=26.4% 404.000MHz Type=RS41-SGP TxOff=7h51m rdzTTGOsonde
EA1JAY-15S44402862022-12-06 14:02:5143.4066-7.2353566663Clb=-4.6m/s p=436.7hPa t=-27.6C h=20.4% 404.000MHz Type=RS41-SGP TxOff=7h51m rdzTTGOsonde
EA1JAY-16S44402862022-12-06 14:02:3343.4055-7.2325350546755Clb=-5.1m/s p=431.4hPa t=-28.3C h=21.8% 404.000MHz Type=RS41-SGP TxOff=7h52m rdzTTGOsonde
EA1JAY-15S44402862022-12-06 14:02:3043.4053-7.2328354576764Clb=-4.9m/s p=430.5hPa t=-28.4C h=22.1% 404.000MHz Type=RS41-SGP TxOff=7h52m rdzTTGOsonde
EA1JAY-16S44402862022-12-06 14:02:1243.4044-7.235449416854Clb=-4.7m/s p=425.2hPa t=-28.6C h=12.9% 404.000MHz Type=RS41-SGP TxOff=7h52m rdzTTGOsonde
EA1JAY-15S44402862022-12-06 14:02:1043.4043-7.2356453486863Clb=-4.6m/s p=424.6hPa t=-28.7C h=12.1% 404.000MHz Type=RS41-SGP TxOff=7h52m rdzTTGOsonde
EB4FMT-14S44402862022-12-06 14:02:0043.4038-7.2376581336928Clb=-5.0m/s t=-28.7C h=9.8% p=420.9hPa 404.001 MHz Type=RS41-SGP ser=S4440286 Radiosonde auto_rx v1.5.9
EA1JAY-16S44402862022-12-06 14:01:5243.4037-7.2381559306953Clb=-5.0m/s p=419.4hPa t=-29.0C h=9.3% 404.000MHz Type=RS41-SGP TxOff=7h53m rdzTTGOsonde
EA1JAY-15S44402862022-12-06 14:01:4943.4035-7.2384353416968Clb=-5.0m/s p=418.5hPa t=-29.2C h=9.3% 404.000MHz Type=RS41-SGP TxOff=7h53m rdzTTGOsonde
EA1JAY-16S44402862022-12-06 14:01:3143.403-7.2410268317058Clb=-4.9m/s p=413.3hPa t=-29.6C h=7.9% 404.000MHz Type=RS41-SGP TxOff=7h53m rdzTTGOsonde
EA1JAY-15S44402862022-12-06 14:01:2943.4029-7.2412461417067Clb=-4.7m/s p=412.8hPa t=-29.7C h=8.0% 404.000MHz Type=RS41-SGP TxOff=7h53m rdzTTGOsonde
EA1JAY-16S44402862022-12-06 14:01:1143.4026-7.2439380307158Clb=-4.8m/s p=407.5hPa t=-30.3C h=9.7% 404.000MHz Type=RS41-SGP TxOff=7h53m rdzTTGOsonde
EA1JAY-15S44402862022-12-06 14:01:0843.4024-7.2443561397178Clb=-5.4m/s p=406.7hPa t=-30.5C h=9.7% 404.000MHz Type=RS41-SGP TxOff=7h53m rdzTTGOsonde
EB4FMT-14S44402862022-12-06 14:01:0043.4021-7.2457493437224Clb=-5.1m/s t=-30.9C h=10.0% p=403.8hPa 404.001 MHz Type=RS41-SGP ser=S4440286 Radiosonde auto_rx v1.5.9
EA1JAY-16S44402862022-12-06 14:00:5143.4021-7.2465266307260Clb=-5.4m/s p=401.8hPa t=-31.2C h=10.5% 404.000MHz Type=RS41-SGP TxOff=7h54m rdzTTGOsonde
EA1JAY-15S44402862022-12-06 14:00:4743.402-7.246959337281Clb=-5.4m/s p=400.6hPa t=-31.4C h=10.9% 404.000MHz Type=RS41-SGP TxOff=7h54m rdzTTGOsonde
EA1JAY-16S44402862022-12-06 14:00:3043.4017-7.2490976247368Clb=-5.1m/s p=395.7hPa t=-32.0C h=11.6% 404.000MHz Type=RS41-SGP TxOff=7h54m rdzTTGOsonde
EA1JAY-15S44402862022-12-06 14:00:2743.4015-7.2494357377388Clb=-5.4m/s p=394.5hPa t=-32.3C h=11.7% 404.000MHz Type=RS41-SGP TxOff=7h54m rdzTTGOsonde
EA1JAY-16S44402862022-12-06 14:00:2243.4012-7.2512453267470Clb=-5.0m/s p=389.9hPa t=-32.9C h=12.5% 404.000MHz Type=RS41-SGP TxOff=7h55m rdzTTGOsonde
EA1JAY-15S44402862022-12-06 14:00:1543.4009-7.251759437496Clb=-5.4m/s p=388.5hPa t=-33.2C h=13.1% 404.000MHz Type=RS41-SGP TxOff=7h55m rdzTTGOsonde
EB4FMT-14S44402862022-12-06 14:00:0043.4008-7.2526682207538Clb=-5.8m/s t=-33.5C h=13.8% p=386.3hPa 404.001 MHz Type=RS41-SGP ser=S4440286 Radiosonde auto_rx v1.5.9
EA1JAY-16S44402862022-12-06 13:59:5043.4005-7.2532258417574Clb=-5.6m/s p=384.2hPa t=-33.9C h=14.2% 404.000MHz Type=RS41-SGP TxOff=7h55m rdzTTGOsonde
EA1JAY-15S44402862022-12-06 13:59:4543.4004-7.2539389437600Clb=-5.6m/s p=382.8hPa t=-34.0C h=14.8% 404.000MHz Type=RS41-SGP TxOff=7h55m rdzTTGOsonde
EA1JAY-16S44402862022-12-06 13:59:2943.3999-7.2556567507686Clb=-5.4m/s p=378.2hPa t=-34.6C h=13.8% 404.000MHz Type=RS41-SGP TxOff=7h55m rdzTTGOsonde
EA1JAY-15S44402862022-12-06 13:59:2443.3998-7.2564890467712Clb=-5.7m/s p=376.8hPa t=-34.7C h=12.8% 404.000MHz Type=RS41-SGP TxOff=7h55m rdzTTGOsonde
EA1JAY-16S44402862022-12-06 13:59:0943.3994-7.2585186547792Clb=-6.1m/s p=372.4hPa t=-35.4C h=12.2% 404.000MHz Type=RS41-SGP TxOff=7h55m rdzTTGOsonde
EA1JAY-15S44402862022-12-06 13:59:0443.3993-7.259390357819Clb=-5.3m/s p=371.0hPa t=-35.6C h=12.1% 404.000MHz Type=RS41-SGP TxOff=7h55m rdzTTGOsonde
EB4FMT-14S44402862022-12-06 13:59:0043.3991-7.2599760467851Clb=-5.5m/s t=-35.8C h=10.9% p=369.2hPa 404.001 MHz Type=RS41-SGP ser=S4440286 Radiosonde auto_rx v1.5.9
EA1JAY-16S44402862022-12-06 13:58:4843.3989-7.2615980317910Clb=-5.6m/s p=366.4hPa t=-36.1C h=9.8% 404.000MHz Type=RS41-SGP TxOff=7h55m rdzTTGOsonde
EA1JAY-15S44402862022-12-06 13:58:4343.3988-7.26261337932Clb=-5.6m/s p=365.0hPa t=-36.2C h=10.1% 404.000MHz Type=RS41-SGP TxOff=7h55m rdzTTGOsonde
EB4FMT-14S44402862022-12-06 13:58:3043.398-7.2645978568018Clb=-5.5m/s t=-37.0C h=11.1% p=360.5hPa 404.001 MHz Type=RS41-SGP ser=S4440286 Radiosonde auto_rx v1.5.9
EA1JAY-16S44402862022-12-06 13:58:2843.398-7.2645979568018Clb=-5.5m/s p=360.8hPa t=-36.9C h=10.9% 404.000MHz Type=RS41-SGP TxOff=7h56m rdzTTGOsonde
EA1JAY-15S44402862022-12-06 13:58:2343.3979-7.2654490438045Clb=-5.6m/s p=359.4hPa t=-37.1C h=11.5% 404.000MHz Type=RS41-SGP TxOff=7h56m rdzTTGOsonde
EA1JAY-16S44402862022-12-06 13:58:0743.3975-7.2677284598127Clb=-5.5m/s p=354.8hPa t=-37.9C h=12.5% 404.000MHz Type=RS41-SGP TxOff=7h56m rdzTTGOsonde
EA1JAY-15S44402862022-12-06 13:58:0343.3974-7.2685370398153Clb=-5.3m/s p=353.8hPa t=-38.1C h=12.9% 404.000MHz Type=RS41-SGP TxOff=7h56m rdzTTGOsonde
EB4FMT-14S44402862022-12-06 13:58:0043.3972-7.2692261548180Clb=-5.6m/s t=-38.5C h=13.5% p=352.1hPa 404.001 MHz Type=RS41-SGP ser=S4440286 Radiosonde auto_rx v1.5.9
EA1JAY-16S44402862022-12-06 13:57:4743.3969-7.2710889508234Clb=-5.7m/s p=349.4hPa t=-38.8C h=14.2% 404.000MHz Type=RS41-SGP TxOff=7h56m rdzTTGOsonde
EA1JAY-15S44402862022-12-06 13:57:4243.3968-7.2717671338262Clb=-6.0m/s p=348.0hPa t=-39.0C h=15.1% 404.000MHz Type=RS41-SGP TxOff=7h56m rdzTTGOsonde
EB4FMT-14S44402862022-12-06 13:57:3043.3961-7.2741886488345Clb=-5.7m/s t=-39.8C h=15.8% p=343.8hPa 404.001 MHz Type=RS41-SGP ser=S4440286 Radiosonde auto_rx v1.5.9
EA1JAY-16S44402862022-12-06 13:57:2743.3961-7.2741888508345Clb=-5.7m/s p=343.8hPa t=-39.8C h=15.8% 404.000MHz Type=RS41-SGP TxOff=7h57m rdzTTGOsonde
EA1JAY-15S44402862022-12-06 13:57:2143.396-7.2749764338378Clb=-5.5m/s p=342.1hPa t=-40.2C h=16.6% 404.000MHz Type=RS41-SGP TxOff=7h57m rdzTTGOsonde
EA1JAY-16S44402862022-12-06 13:57:0643.3955-7.2773284358462Clb=-6.0m/s p=337.9hPa t=-40.9C h=17.0% 404.000MHz Type=RS41-SGP TxOff=7h57m rdzTTGOsonde
EA1JAY-15S44402862022-12-06 13:57:0043.3952-7.2779958508494Clb=-5.5m/s p=336.3hPa t=-41.3C h=17.0% 404.000MHz Type=RS41-SGP TxOff=7h57m rdzTTGOsonde
EA1JAY-16S44402862022-12-06 13:56:4543.3947-7.2805287398578Clb=-5.7m/s p=332.2hPa t=-42.0C h=17.3% 404.000MHz Type=RS41-SGP TxOff=7h58m rdzTTGOsonde
EA1JAY-15S44402862022-12-06 13:56:4043.3946-7.2810762318606Clb=-6.0m/s p=330.8hPa t=-42.2C h=17.7% 404.000MHz Type=RS41-SGP TxOff=7h58m rdzTTGOsonde
EB4FMT-14S44402862022-12-06 13:56:3043.3939-7.2831581548681Clb=-5.6m/s t=-42.8C h=17.3% p=327.2hPa 404.001 MHz Type=RS41-SGP ser=S4440286 Radiosonde auto_rx v1.5.9
EA1JAY-16S44402862022-12-06 13:56:2443.3939-7.2836284398697Clb=-5.7m/s p=326.4hPa t=-43.0C h=17.4% 404.000MHz Type=RS41-SGP TxOff=7h58m rdzTTGOsonde
EA1JAY-15S44402862022-12-06 13:56:1943.3938-7.2842164358726Clb=-5.7m/s p=325.0hPa t=-43.2C h=17.6% 404.000MHz Type=RS41-SGP TxOff=7h58m rdzTTGOsonde
EA1JAY-16S44402862022-12-06 13:56:0343.3931-7.2866175378815Clb=-5.5m/s p=320.8hPa t=-43.9C h=16.7% 404.000MHz Type=RS41-SGP TxOff=7h58m rdzTTGOsonde
EA1JAY-15S44402862022-12-06 13:55:5943.393-7.2870877358837Clb=-5.6m/s p=319.7hPa t=-44.0C h=16.7% 404.000MHz Type=RS41-SGP TxOff=7h58m rdzTTGOsonde
EA1JAY-16S44402862022-12-06 13:55:4243.3922-7.2894384488932Clb=-5.6m/s p=315.2hPa t=-44.8C h=16.9% 404.000MHz Type=RS41-SGP TxOff=7h59m rdzTTGOsonde
EA1JAY-15S44402862022-12-06 13:55:3843.3922-7.2900974338959Clb=-5.7m/s p=314.0hPa t=-45.0C h=17.7% 404.000MHz Type=RS41-SGP TxOff=7h59m rdzTTGOsonde
EB4FMT-14S44402862022-12-06 13:55:3043.3916-7.2912348469015Clb=-5.9m/s t=-45.6C h=17.1% p=311.2hPa 404.001 MHz Type=RS41-SGP ser=S4440286 Radiosonde auto_rx v1.5.9
EA1JAY-16S44402862022-12-06 13:55:2243.3912-7.2919361579044Clb=-5.9m/s p=309.9hPa t=-45.8C h=17.5% 404.000MHz Type=RS41-SGP TxOff=7h59m rdzTTGOsonde
EA1JAY-15S44402862022-12-06 13:55:1743.391-7.2928180469073Clb=-5.4m/s p=308.6hPa t=-46.0C h=17.5% 404.000MHz Type=RS41-SGP TxOff=7h59m rdzTTGOsonde
EA1JAY-16S44402862022-12-06 13:55:0143.3906-7.2951683509164Clb=-5.8m/s p=304.5hPa t=-46.7C h=17.9% 404.000MHz Type=RS41-SGP TxOff=8h0m rdzTTGOsonde
EB4FMT-14S44402862022-12-06 13:55:0043.3906-7.2958280439186Clb=-5.6m/s t=-46.9C h=18.3% p=303.4hPa 404.001 MHz Type=RS41-SGP ser=S4440286 Radiosonde auto_rx v1.5.9
EA1JAY-15S44402862022-12-06 13:54:5643.3905-7.2959580419192Clb=-5.5m/s p=303.1hPa t=-47.0C h=18.3% 404.000MHz Type=RS41-SGP TxOff=8h0m rdzTTGOsonde
EA1JAY-16S44402862022-12-06 13:54:4143.3899-7.2976858569278Clb=-5.5m/s p=299.2hPa t=-47.8C h=19.2% 404.000MHz Type=RS41-SGP TxOff=8h0m rdzTTGOsonde
EA1JAY-15S44402862022-12-06 13:54:3543.3896-7.2987983529313Clb=-5.4m/s p=297.6hPa t=-48.0C h=19.2% 404.000MHz Type=RS41-SGP TxOff=8h0m rdzTTGOsonde
EB4FMT-14S44402862022-12-06 13:54:3043.3894-7.2998871359359Clb=-5.6m/s t=-48.4C h=20.5% p=295.6hPa 404.001 MHz Type=RS41-SGP ser=S4440286 Radiosonde auto_rx v1.5.9
EA1JAY-16S44402862022-12-06 13:54:2043.3891-7.3007159529399Clb=-5.6m/s p=293.8hPa t=-48.9C h=20.8% 404.000MHz Type=RS41-SGP TxOff=8h0m rdzTTGOsonde
EA1JAY-15S44402862022-12-06 13:54:1443.3888-7.3018273639434Clb=-5.9m/s p=292.2hPa t=-49.1C h=21.0% 404.000MHz Type=RS41-SGP TxOff=8h0m rdzTTGOsonde
EA1JAY-16S44402862022-12-06 13:54:0043.3886-7.3042684419514Clb=-5.9m/s p=288.6hPa t=-49.8C h=22.7% 404.000MHz Type=RS41-SGP TxOff=8h1m rdzTTGOsonde
EA1JAY-15S44402862022-12-06 13:53:5043.3882-7.3055157489573Clb=-6.0m/s p=286.0hPa t=-50.4C h=22.5% 404.000MHz Type=RS41-SGP rdzTTGOsonde
EA1JAY-16S44402862022-12-06 13:53:3943.3878-7.3074991449637Clb=-6.1m/s p=283.2hPa t=-50.9C h=23.5% 404.000MHz Type=RS41-SGP TxOff=8h1m rdzTTGOsonde
EA1JAY-15S44402862022-12-06 13:53:2943.3874-7.3088462569695Clb=-5.8m/s p=280.7hPa t=-51.4C h=22.1% 404.000MHz Type=RS41-SGP rdzTTGOsonde
EA1JAY-16S44402862022-12-06 13:53:1843.3866-7.3111270659767Clb=-6.1m/s p=277.8hPa t=-51.7C h=20.7% 404.000MHz Type=RS41-SGP TxOff=8h1m rdzTTGOsonde
EA1JAY-15S44402862022-12-06 13:53:0843.3864-7.3129886469827Clb=-6.1m/s p=275.4hPa t=-52.0C h=19.7% 404.000MHz Type=RS41-SGP rdzTTGOsonde
EB4FMT-14S44402862022-12-06 13:53:0043.386-7.3142751469889Clb=-6.4m/s t=-52.1C h=18.8% p=272.4hPa 404.001 MHz Type=RS41-SGP ser=S4440286 Radiosonde auto_rx v1.5.9
EA1JAY-16S44402862022-12-06 13:52:5843.386-7.3142753469889Clb=-6.4m/s p=272.7hPa t=-52.0C h=18.7% 404.000MHz Type=RS41-SGP TxOff=8h1m rdzTTGOsonde
EA1JAY-15S44402862022-12-06 13:52:4843.3854-7.3160285529948Clb=-6.0m/s p=270.2hPa t=-52.6C h=18.5% 404.000MHz Type=RS41-SGP rdzTTGOsonde
EA1JAY-16S44402862022-12-06 13:52:3743.3852-7.31725503910011Clb=-6.3m/s p=267.4hPa t=-53.1C h=19.8% 404.000MHz Type=RS41-SGP TxOff=8h1m rdzTTGOsonde
EB4FMT-14S44402862022-12-06 13:52:3043.3845-7.31888705710070Clb=-6.1m/s t=-53.5C h=19.5% p=264.9hPa 404.001 MHz Type=RS41-SGP ser=S4440286 Radiosonde auto_rx v1.5.9
EA1JAY-15S44402862022-12-06 13:52:2743.3845-7.31888725710070Clb=-6.1m/s p=264.9hPa t=-53.5C h=19.5% 404.000MHz Type=RS41-SGP TxOff=8h2m rdzTTGOsonde
EA1JAY-16S44402862022-12-06 13:52:1643.3841-7.32089775410138Clb=-6.0m/s p=262.1hPa t=-54.0C h=19.4% 404.000MHz Type=RS41-SGP TxOff=8h2m rdzTTGOsonde
EA1JAY-15S44402862022-12-06 13:52:0643.3838-7.32243673910200Clb=-6.3m/s p=259.6hPa t=-54.3C h=21.6% 404.000MHz Type=RS41-SGP TxOff=8h2m rdzTTGOsonde
EB4FMT-14S44402862022-12-06 13:52:0043.3831-7.32381596510254Clb=-5.8m/s t=-54.9C h=22.0% p=257.4hPa 404.001 MHz Type=RS41-SGP ser=S4440286 Radiosonde auto_rx v1.5.9
EA1JAY-16S44402862022-12-06 13:51:5543.3829-7.32421656710267Clb=-6.2m/s p=256.9hPa t=-55.0C h=21.9% 404.000MHz Type=RS41-SGP TxOff=8h2m rdzTTGOsonde
EA1JAY-15S44402862022-12-06 13:51:4543.3822-7.32638756910329Clb=-6.3m/s p=254.4hPa t=-55.4C h=21.9% 404.000MHz Type=RS41-SGP TxOff=8h2m rdzTTGOsonde
EA1JAY-16S44402862022-12-06 13:51:3543.3819-7.32805575210392Clb=-5.7m/s p=252.0hPa t=-56.1C h=24.0% 404.000MHz Type=RS41-SGP TxOff=8h3m rdzTTGOsonde
EB4FMT-14S44402862022-12-06 13:51:3043.3812-7.32952566710440Clb=-6.2m/s t=-56.4C h=23.2% p=250.0hPa 404.001 MHz Type=RS41-SGP ser=S4440286 Radiosonde auto_rx v1.5.9
EA1JAY-15S44402862022-12-06 13:51:2443.3809-7.33013617210459Clb=-6.5m/s p=249.3hPa t=-56.5C h=23.2% 404.000MHz Type=RS41-SGP TxOff=8h3m rdzTTGOsonde
EA1JAY-16S44402862022-12-06 13:51:1443.3804-7.33241846310522Clb=-6.6m/s p=246.8hPa t=-56.9C h=23.4% 404.000MHz Type=RS41-SGP TxOff=8h3m rdzTTGOsonde
EA1JAY-15S44402862022-12-06 13:51:0243.3799-7.33455667010596Clb=-6.7m/s p=243.9hPa t=-57.5C h=23.2% 404.000MHz Type=RS41-SGP TxOff=8h3m rdzTTGOsonde
EB4FMT-14S44402862022-12-06 13:51:0043.3795-7.33572747210628Clb=-6.2m/s t=-57.5C h=22.5% p=242.8hPa 404.001 MHz Type=RS41-SGP ser=S4440286 Radiosonde auto_rx v1.5.9
EA1JAY-16S44402862022-12-06 13:50:5443.3794-7.33645817410647Clb=-6.3m/s p=242.0hPa t=-57.6C h=22.6% 404.000MHz Type=RS41-SGP TxOff=8h3m rdzTTGOsonde
EA1JAY-15S44402862022-12-06 13:50:3643.3787-7.34012635910766Clb=-6.3m/s p=237.5hPa t=-58.1C h=22.9% 404.000MHz Type=RS41-SGP TxOff=8h4m rdzTTGOsonde
EA1JAY-16S44402862022-12-06 13:50:3343.3785-7.34066636110784Clb=-6.1m/s p=237.1hPa t=-58.1C h=22.7% 404.000MHz Type=RS41-SGP TxOff=8h4m rdzTTGOsonde
EB4FMT-14S44402862022-12-06 13:50:3043.3781-7.34159626110816Clb=-6.6m/s t=-58.4C h=22.7% p=235.6hPa 404.001 MHz Type=RS41-SGP ser=S4440286 Radiosonde auto_rx v1.5.9
EA1JAY-15S44402862022-12-06 13:50:1543.3774-7.34421726710890Clb=-6.3m/s p=232.9hPa t=-58.8C h=22.0% 404.000MHz Type=RS41-SGP TxOff=8h4m rdzTTGOsonde
EA1JAY-16S44402862022-12-06 13:50:1243.3773-7.34487736910909Clb=-6.5m/s p=232.2hPa t=-59.0C h=21.7% 404.000MHz Type=RS41-SGP TxOff=8h4m rdzTTGOsonde
EB4FMT-14S44402862022-12-06 13:50:0043.3769-7.34839896711003Clb=-6.4m/s t=-59.2C h=21.6% p=228.7hPa 404.001 MHz Type=RS41-SGP ser=S4440286 Radiosonde auto_rx v1.5.9
EA1JAY-15S44402862022-12-06 13:49:5443.3769-7.3491877211023Clb=-6.4m/s p=228.0hPa t=-59.2C h=21.3% 404.000MHz Type=RS41-SGP TxOff=8h5m rdzTTGOsonde
EA1JAY-16S44402862022-12-06 13:49:5243.3769-7.3496857411035Clb=-6.5m/s p=227.5hPa t=-59.3C h=21.2% 404.000MHz Type=RS41-SGP TxOff=8h5m rdzTTGOsonde
EA1JAY-15S44402862022-12-06 13:49:3443.3767-7.35293794311151Clb=-6.1m/s p=223.4hPa t=-59.3C h=20.4% 404.000MHz Type=RS41-SGP TxOff=8h5m rdzTTGOsonde
EA1JAY-16S44402862022-12-06 13:49:3143.3766-7.35336744311170Clb=-6.7m/s p=222.7hPa t=-59.5C h=20.1% 404.000MHz Type=RS41-SGP TxOff=8h5m rdzTTGOsonde
EB4FMT-14S44402862022-12-06 13:49:3043.3765-7.35393654611196Clb=-6.5m/s t=-59.7C h=19.6% p=221.8hPa 404.001 MHz Type=RS41-SGP ser=S4440286 Radiosonde auto_rx v1.5.9
EA1JAY-15S44402862022-12-06 13:49:1343.3757-7.35709807811293Clb=-6.3m/s p=218.6hPa t=-59.9C h=18.1% 404.000MHz Type=RS41-SGP TxOff=8h5m rdzTTGOsonde
EA1JAY-16S44402862022-12-06 13:49:1043.3757-7.35762807811306Clb=-6.7m/s p=217.9hPa t=-59.9C h=17.9% 404.000MHz Type=RS41-SGP TxOff=8h5m rdzTTGOsonde
EB4FMT-14S44402862022-12-06 13:49:0043.375-7.36098768011390Clb=-6.5m/s t=-59.7C h=16.2% p=215.0hPa 404.001 MHz Type=RS41-SGP ser=S4440286 Radiosonde auto_rx v1.5.9
EA1JAY-15S44402862022-12-06 13:48:5243.3748-7.36235778111423Clb=-6.6m/s p=213.9hPa t=-59.4C h=14.9% 404.000MHz Type=RS41-SGP TxOff=8h6m rdzTTGOsonde
EA1JAY-16S44402862022-12-06 13:48:5043.3747-7.3629778111436Clb=-6.8m/s p=213.4hPa t=-59.3C h=14.2% 404.000MHz Type=RS41-SGP TxOff=8h6m rdzTTGOsonde
EA1JAY-15S44402862022-12-06 13:48:3243.3745-7.36745835211559Clb=-7.7m/s p=209.3hPa t=-59.4C h=12.7% 404.000MHz Type=RS41-SGP TxOff=8h6m rdzTTGOsonde
EA1JAY-16S44402862022-12-06 13:48:3043.3744-7.36781775411574Clb=-7.0m/s p=208.8hPa t=-59.5C h=12.5% 404.000MHz Type=RS41-SGP TxOff=8h6m rdzTTGOsonde
EA1JAY-15S44402862022-12-06 13:48:1243.374-7.37205926511696Clb=-7.1m/s p=204.7hPa t=-59.2C h=10.0% 404.000MHz Type=RS41-SGP TxOff=8h7m rdzTTGOsonde
EA1JAY-16S44402862022-12-06 13:48:0943.374-7.37268935611718Clb=-6.8m/s p=204.0hPa t=-58.9C h=9.7% 404.000MHz Type=RS41-SGP TxOff=8h7m rdzTTGOsonde
EB4FMT-14S44402862022-12-06 13:48:0043.3738-7.37446634411801Clb=-7.5m/s t=-58.6C h=7.9% p=201.3hPa 404.001 MHz Type=RS41-SGP ser=S4440286 Radiosonde auto_rx v1.5.9
EA1JAY-15S44402862022-12-06 13:47:5243.3735-7.37527646711838Clb=-7.1m/s p=200.2hPa t=-58.6C h=7.7% 404.000MHz Type=RS41-SGP TxOff=8h7m rdzTTGOsonde
EA1JAY-16S44402862022-12-06 13:47:4943.3733-7.37595717411859Clb=-7.5m/s p=199.5hPa t=-58.5C h=7.4% 404.000MHz Type=RS41-SGP TxOff=8h7m rdzTTGOsonde
EA1JAY-15S44402862022-12-06 13:47:3143.3728-7.37945854411988Clb=-6.8m/s p=195.4hPa t=-57.8C h=6.0% 404.000MHz Type=RS41-SGP TxOff=8h7m rdzTTGOsonde
EB4FMT-14S44402862022-12-06 13:47:3043.3728-7.38006854112016Clb=-7.3m/s t=-57.8C h=6.0% p=194.6hPa 404.001 MHz Type=RS41-SGP ser=S4440286 Radiosonde auto_rx v1.5.9
EA1JAY-16S44402862022-12-06 13:47:2843.3728-7.38006864112016Clb=-7.3m/s p=194.8hPa t=-57.9C h=6.0% 404.000MHz Type=RS41-SGP TxOff=8h7m rdzTTGOsonde
EA1JAY-15S44402862022-12-06 13:47:1143.372-7.38242726912133Clb=-7.4m/s p=191.0hPa t=-57.7C h=5.0% 404.000MHz Type=RS41-SGP TxOff=8h7m rdzTTGOsonde
EA1JAY-16S44402862022-12-06 13:47:0743.3718-7.38334876912161Clb=-7.0m/s p=190.1hPa t=-57.7C h=4.8% 404.000MHz Type=RS41-SGP TxOff=8h7m rdzTTGOsonde
EB4FMT-14S44402862022-12-06 13:47:0043.3719-7.38536986312226Clb=-7.3m/s t=-58.0C h=4.8% p=188.2hPa 404.001 MHz Type=RS41-SGP ser=S4440286 Radiosonde auto_rx v1.5.9
EA1JAY-15S44402862022-12-06 13:46:5043.372-7.38679804312286Clb=-7.0m/s p=186.4hPa t=-58.2C h=4.6% 404.000MHz Type=RS41-SGP TxOff=8h7m rdzTTGOsonde
EA1JAY-16S44402862022-12-06 13:46:4643.3719-7.3875736512314Clb=-7.0m/s p=185.5hPa t=-58.0C h=4.3% 404.000MHz Type=RS41-SGP TxOff=8h7m rdzTTGOsonde
EA1JAY-15S44402862022-12-06 13:46:3043.3719-7.39094954112432Clb=-7.2m/s p=182.1hPa t=-57.1C h=3.8% 404.000MHz Type=RS41-SGP TxOff=8h8m rdzTTGOsonde
EA1JAY-16S44402862022-12-06 13:46:2543.3718-7.39169715412467Clb=-7.7m/s p=181.2hPa t=-57.3C h=3.6% 404.000MHz Type=RS41-SGP TxOff=8h8m rdzTTGOsonde
EA1JAY-15S44402862022-12-06 13:46:0943.3712-7.3946945212584Clb=-7.2m/s p=177.9hPa t=-56.9C h=3.2% 404.000MHz Type=RS41-SGP TxOff=8h8m rdzTTGOsonde
EA1JAY-16S44402862022-12-06 13:46:0443.3713-7.395381003712622Clb=-7.4m/s p=176.8hPa t=-57.3C h=3.3% 404.000MHz Type=RS41-SGP TxOff=8h8m rdzTTGOsonde
EB4FMT-14S44402862022-12-06 13:46:0043.3712-7.39597432812676Clb=-7.7m/s t=-57.6C h=3.2% p=175.3hPa 404.001 MHz Type=RS41-SGP ser=S4440286 Radiosonde auto_rx v1.5.9
EA1JAY-15S44402862022-12-06 13:45:4843.3704-7.39728645912750Clb=-7.5m/s p=173.4hPa t=-58.1C h=3.2% 404.000MHz Type=RS41-SGP TxOff=8h8m rdzTTGOsonde
EA1JAY-16S44402862022-12-06 13:45:4443.3703-7.39786726312773Clb=-7.8m/s p=172.6hPa t=-58.0C h=3.0% 404.000MHz Type=RS41-SGP TxOff=8h8m rdzTTGOsonde
EB4FMT-14S44402862022-12-06 13:45:3043.3693-7.4004485712900Clb=-7.5m/s t=-58.5C h=3.1% p=169.2hPa 404.001 MHz Type=RS41-SGP ser=S4440286 Radiosonde auto_rx v1.5.9
EA1JAY-15S44402862022-12-06 13:45:2743.3693-7.4004495712900Clb=-7.5m/s p=169.2hPa t=-58.5C h=3.1% 404.000MHz Type=RS41-SGP TxOff=8h9m rdzTTGOsonde
EA1JAY-16S44402862022-12-06 13:45:2443.369-7.40089536712924Clb=-8.1m/s p=168.5hPa t=-58.3C h=3.0% 404.000MHz Type=RS41-SGP TxOff=8h9m rdzTTGOsonde
EA1JAY-15S44402862022-12-06 13:45:0743.3682-7.40429555613054Clb=-8.2m/s p=165.1hPa t=-57.4C h=2.8% 404.000MHz Type=RS41-SGP TxOff=8h9m rdzTTGOsonde
EA1JAY-16S44402862022-12-06 13:45:0343.3677-7.40529688013092Clb=-7.5m/s p=164.3hPa t=-57.5C h=2.8% 404.000MHz Type=RS41-SGP TxOff=8h9m rdzTTGOsonde
EB4FMT-14S44402862022-12-06 13:45:0043.3675-7.40662827813130Clb=-7.7m/s t=-57.2C h=2.5% p=163.0hPa 404.001 MHz Type=RS41-SGP ser=S4440286 Radiosonde auto_rx v1.5.9
EA1JAY-15S44402862022-12-06 13:44:4643.3672-7.4088615013217Clb=-8.0m/s p=160.9hPa t=-57.5C 404.000MHz Type=RS41-SGP rdzTTGOsonde
EA1JAY-16S44402862022-12-06 13:44:4343.3669-7.40944596113248Clb=-7.8m/s p=160.2hPa t=-57.7C h=2.6% 404.000MHz Type=RS41-SGP TxOff=8h10m rdzTTGOsonde
EB4FMT-14S44402862022-12-06 13:44:3243.3655-7.41268648513366Clb=-7.8m/s t=-57.9C h=2.4% p=157.1hPa 404.001 MHz Type=RS41-SGP ser=S4440286 Radiosonde auto_rx v1.5.9
EA1JAY-15S44402862022-12-06 13:44:2643.3653-7.41322708713382Clb=-8.1m/s p=156.7hPa t=-57.8C 404.000MHz Type=RS41-SGP rdzTTGOsonde
EA1JAY-16S44402862022-12-06 13:44:2243.3651-7.41406778313405Clb=-7.7m/s p=156.2hPa t=-57.7C h=2.3% 404.000MHz Type=RS41-SGP TxOff=8h10m rdzTTGOsonde
EA1JAY-15S44402862022-12-06 13:44:0443.3642-7.4179617413549Clb=-8.1m/s p=152.6hPa 404.000MHz Type=RS41-SGP rdzTTGOsonde
EA1JAY-16S44402862022-12-06 13:44:0243.364-7.41837668113566Clb=-8.9m/s p=152.2hPa t=-57.8C h=2.3% 404.000MHz Type=RS41-SGP TxOff=8h10m rdzTTGOsonde
EB4FMT-14S44402862022-12-06 13:44:0043.3638-7.41964876913607Clb=-7.5m/s t=-57.6C h=2.1% p=151.2hPa 404.001 MHz Type=RS41-SGP ser=S4440286 Radiosonde auto_rx v1.5.9
EA1JAY-16S44402862022-12-06 13:43:4143.3639-7.42263893913736Clb=-8.6m/s p=148.1hPa t=-57.8C h=2.1% 404.000MHz Type=RS41-SGP TxOff=8h11m rdzTTGOsonde
EA1JAY-15S44402862022-12-06 13:43:3643.3638-7.42353856713775Clb=-7.4m/s 404.000MHz Type=RS41-SGP rdzTTGOsonde
EB4FMT-14S44402862022-12-06 13:43:3043.3638-7.42536864113849Clb=-8.1m/s t=-58.2C h=2.1% p=145.5hPa 404.001 MHz Type=RS41-SGP ser=S4440286 Radiosonde auto_rx v1.5.9
EA1JAY-16S44402862022-12-06 13:43:2143.3637-7.42614673913899Clb=-8.3m/s p=144.4hPa t=-58.4C h=2.2% 404.000MHz Type=RS41-SGP TxOff=8h11m rdzTTGOsonde
EA1JAY-15S44402862022-12-06 13:43:1443.3632-7.42706595413959Clb=-8.6m/s 404.000MHz Type=RS41-SGP rdzTTGOsonde
EA1JAY-16S44402862022-12-06 13:43:0143.363-7.429851004614069Clb=-8.4m/s p=140.5hPa t=-59.0C h=2.3% 404.000MHz Type=RS41-SGP TxOff=8h12m rdzTTGOsonde
EB4FMT-14S44402862022-12-06 13:43:0043.363-7.43031593114102Clb=-8.5m/s t=-59.3C h=2.2% p=139.8hPa 404.001 MHz Type=RS41-SGP ser=S4440286 Radiosonde auto_rx v1.5.9
EA1JAY-15S44402862022-12-06 13:42:5343.3627-7.43075545214136Clb=-8.2m/s 404.000MHz Type=RS41-SGP rdzTTGOsonde
EA1JAY-16S44402862022-12-06 13:42:4043.3621-7.4335956314245Clb=-8.7m/s p=136.6hPa t=-59.7C h=2.3% 404.000MHz Type=RS41-SGP TxOff=8h12m rdzTTGOsonde
EB4FMT-14S44402862022-12-06 13:42:3043.362-7.43544673714355Clb=-8.9m/s t=-59.8C h=2.2% p=134.2hPa 404.001 MHz Type=RS41-SGP ser=S4440286 Radiosonde auto_rx v1.5.9
EA1JAY-15S44402862022-12-06 13:42:2243.3617-7.43615605914399Clb=-8.5m/s 404.000MHz Type=RS41-SGP rdzTTGOsonde
EA1JAY-16S44402862022-12-06 13:42:2043.3616-7.43654636914416Clb=-8.7m/s p=133.0hPa t=-60.1C h=2.4% 404.000MHz Type=RS41-SGP TxOff=8h12m rdzTTGOsonde
EA1JAY-16S44402862022-12-06 13:42:0043.3613-7.44032903514588Clb=-8.6m/s p=129.4hPa t=-59.4C h=2.2% 404.000MHz Type=RS41-SGP TxOff=8h12m rdzTTGOsonde
EA1JAY-15S44402862022-12-06 13:41:5843.3613-7.44065743314615Clb=-9.2m/s 404.000MHz Type=RS41 TxOff=8h12m rdzTTGOsonde
EA1JAY-16S44402862022-12-06 13:41:4043.3604-7.44364796314760Clb=-8.3m/s p=125.8hPa t=-59.4C h=2.2% 404.000MHz Type=RS41-SGP TxOff=8h12m rdzTTGOsonde
EA1JAY-15S44402862022-12-06 13:41:3843.36-7.44516625014829Clb=-8.3m/s 404.000MHz Type=RS41 TxOff=8h12m rdzTTGOsonde
EB4FMT-14S44402862022-12-06 13:41:3043.3597-7.44592685614873Clb=-9.0m/s t=-59.4C h=2.1% p=123.5hPa 404.001 MHz Type=RS41-SGP ser=S4440286 Radiosonde auto_rx v1.5.9
EA1JAY-16S44402862022-12-06 13:41:1943.3597-7.44731993714945Clb=-9.0m/s p=122.2hPa t=-59.2C h=2.2% 404.000MHz Type=RS41-SGP TxOff=8h13m rdzTTGOsonde
EA1JAY-15S44402862022-12-06 13:41:1343.3596-7.44789742614997Clb=-9.0m/s 404.000MHz Type=RS41 TxOff=8h13m rdzTTGOsonde
EA1JAY-16S44402862022-12-06 13:40:5943.3596-7.449471033915122Clb=-9.1m/s p=118.8hPa t=-59.2C h=2.3% 404.000MHz Type=RS41-SGP TxOff=8h13m rdzTTGOsonde
EA1JAY-15S44402862022-12-06 13:40:3943.3599-7.45264912815303Clb=-9.3m/s 404.000MHz Type=RS41 TxOff=8h13m rdzTTGOsonde
EA1JAY-16S44402862022-12-06 13:40:3843.3599-7.45274823115312Clb=-8.9m/s p=115.3hPa t=-59.4C h=2.2% 404.000MHz Type=RS41-SGP TxOff=8h13m rdzTTGOsonde
EB4FMT-14S44402862022-12-06 13:40:3043.3594-7.45406595415405Clb=-10.1m/s t=-59.9C h=2.3% p=113.5hPa 404.001 MHz Type=RS41-SGP ser=S4440286 Radiosonde auto_rx v1.5.9
EA1JAY-15S44402862022-12-06 13:40:2143.3593-7.455791023315496Clb=-9.2m/s 404.000MHz Type=RS41 rdzTTGOsonde
EB4FMT-14S44402862022-12-06 13:40:0043.3588-7.45778475715687Clb=-9.6m/s t=-60.6C h=2.4% p=108.5hPa 404.001 MHz Type=RS41-SGP ser=S4440286 Radiosonde auto_rx v1.5.9
EA1JAY-16S44402862022-12-06 13:39:5643.3586-7.45812596715705Clb=-8.9m/s p=108.2hPa t=-60.4C h=2.4% 404.000MHz Type=RS41-SGP TxOff=8h14m rdzTTGOsonde
EA1JAY-16S44402862022-12-06 13:39:3643.3582-7.46079392615900Clb=-9.5m/s p=104.9hPa t=-61.2C h=2.5% 404.000MHz Type=RS41-SGP TxOff=8h15m rdzTTGOsonde
EB4FMT-14S44402862022-12-06 13:39:3043.3575-7.46152484815989Clb=-9.4m/s t=-61.9C h=2.5% p=103.4hPa 404.001 MHz Type=RS41-SGP ser=S4440286 Radiosonde auto_rx v1.5.9
EA1JAY-16S44402862022-12-06 13:39:1543.3571-7.46338983116107Clb=-9.9m/s p=101.5hPa t=-62.2C h=2.8% 404.000MHz Type=RS41-SGP TxOff=8h15m rdzTTGOsonde
EB4FMT-14S44402862022-12-06 13:39:0043.3562-7.46507492216289Clb=-10.5m/s t=-62.0C h=2.5% p=98.5hPa 404.001 MHz Type=RS41-SGP ser=S4440286 Radiosonde auto_rx v1.5.9
EA1JAY-16S44402862022-12-06 13:38:5543.3562-7.46521842416309Clb=-9.7m/s p=98.2hPa t=-61.9C h=2.5% 404.000MHz Type=RS41-SGP TxOff=8h16m rdzTTGOsonde
EA1JAY-16S44402862022-12-06 13:38:3443.3563-7.46717594116521Clb=-10.3m/s p=94.8hPa t=-61.7C h=2.4% 404.000MHz Type=RS41-SGP TxOff=8h16m rdzTTGOsonde
EB4FMT-14S44402862022-12-06 13:38:3043.3562-7.46804904416582Clb=-10.0m/s t=-61.8C h=2.3% p=94.0hPa 404.001 MHz Type=RS41-SGP ser=S4440286 Radiosonde auto_rx v1.5.9
EA1JAY-16S44402862022-12-06 13:38:1443.3563-7.46943252016730Clb=-10.8m/s p=91.7hPa t=-62.4C h=2.5% 404.000MHz Type=RS41-SGP TxOff=8h16m rdzTTGOsonde
EB4FMT-14S44402862022-12-06 13:38:0043.3557-7.47151801116899Clb=-9.9m/s t=-62.4C h=2.5% p=89.3hPa 404.001 MHz Type=RS41-SGP ser=S4440286 Radiosonde auto_rx v1.5.9
EA1JAY-16S44402862022-12-06 13:37:5443.3555-7.47171453316941Clb=-10.5m/s p=88.7hPa t=-62.7C h=2.5% 404.000MHz Type=RS41-SGP TxOff=8h17m rdzTTGOsonde
EA1JAY-16S44402862022-12-06 13:37:3443.3551-7.47526815417157Clb=-10.3m/s p=85.6hPa t=-61.9C h=2.1% 404.000MHz Type=RS41-SGP TxOff=8h17m rdzTTGOsonde
EB4FMT-14S44402862022-12-06 13:37:3043.3549-7.47623885917211Clb=-11.4m/s t=-61.9C h=2.1% p=84.9hPa 404.001 MHz Type=RS41-SGP ser=S4440286 Radiosonde auto_rx v1.5.9
EA1JAY-16S44402862022-12-06 13:37:1243.3553-7.47747349217383Clb=-11.2m/s p=82.5hPa t=-62.4C h=2.2% 404.000MHz Type=RS41-SGP TxOff=8h18m rdzTTGOsonde
EB4FMT-14S44402862022-12-06 13:37:0043.3548-7.47862804317532Clb=-10.6m/s t=-62.1C h=2.0% p=80.5hPa 404.001 MHz Type=RS41-SGP ser=S4440286 Radiosonde auto_rx v1.5.9
EA1JAY-16S44402862022-12-06 13:36:5443.3549-7.479411192817598Clb=-10.5m/s p=79.7hPa t=-62.5C h=2.1% 404.000MHz Type=RS41-SGP TxOff=8h18m rdzTTGOsonde
EA1JAY-16S44402862022-12-06 13:36:3143.3546-7.480071033017827Clb=-10.5m/s p=76.9hPa t=-62.0C h=2.0% 404.000MHz Type=RS41-SGP TxOff=8h18m rdzTTGOsonde
EB4FMT-14S44402862022-12-06 13:36:3043.3547-7.48039983117858Clb=-10.8m/s t=-61.9C h=2.0% p=76.5hPa 404.001 MHz Type=RS41-SGP ser=S4440286 Radiosonde auto_rx v1.5.9
EA1JAY-16S44402862022-12-06 13:36:1043.3552-7.481742161518062Clb=-12.4m/s p=74.0hPa t=-60.9C h=1.8% 404.000MHz Type=RS41-SGP TxOff=8h18m rdzTTGOsonde
EB4FMT-14S44402862022-12-06 13:36:0043.3545-7.48238894618201Clb=-10.4m/s t=-60.9C h=1.6% p=72.3hPa 404.001 MHz Type=RS41-SGP ser=S4440286 Radiosonde auto_rx v1.5.9
EA1JAY-16S44402862022-12-06 13:35:5043.3547-7.48284291718291Clb=-11.7m/s p=71.3hPa t=-61.1C h=1.7% 404.000MHz Type=RS41-SGP TxOff=8h18m rdzTTGOsonde
EA1JAY-16S44402862022-12-06 13:35:3143.3543-7.483742041318533Clb=-12.1m/s p=68.6hPa t=-62.2C h=1.8% 404.000MHz Type=RS41-SGP TxOff=8h19m rdzTTGOsonde
EB4FMT-14S44402862022-12-06 13:35:3043.3543-7.48371344618557Clb=-11.1m/s t=-62.2C h=1.7% p=68.3hPa 404.001 MHz Type=RS41-SGP ser=S4440286 Radiosonde auto_rx v1.5.9
EA1JAY-16S44402862022-12-06 13:35:0943.3544-7.484672171718792Clb=-11.8m/s p=65.9hPa t=-62.2C h=1.8% 404.000MHz Type=RS41-SGP TxOff=8h19m rdzTTGOsonde
EA1JAY-15S44402862022-12-06 13:35:0743.3545-7.4846282718817Clb=-12.1m/s p=65.6hPa t=-62.2C h=1.8% 404.000MHz Type=RS41-SGP rdzTTGOsonde
EB4FMT-14S44402862022-12-06 13:35:0043.3539-7.48483494318943Clb=-12.4m/s t=-61.5C h=1.7% p=64.2hPa 404.001 MHz Type=RS41-SGP ser=S4440286 Radiosonde auto_rx v1.5.9
EA1JAY-16S44402862022-12-06 13:34:4943.3539-7.486191144419052Clb=-12.1m/s p=63.2hPa t=-61.2C h=1.7% 404.000MHz Type=RS41-SGP TxOff=8h19m rdzTTGOsonde
EA1JAY-15S44402862022-12-06 13:34:3143.3552-7.48751120619278Clb=-11.8m/s p=60.9hPa t=-59.7C h=1.4% 404.000MHz Type=RS41-SGP rdzTTGOsonde
EB4FMT-14S44402862022-12-06 13:34:3043.3552-7.4876982019301Clb=-11.0m/s t=-59.9C h=1.4% p=60.7hPa 404.001 MHz Type=RS41-SGP ser=S4440286 Radiosonde auto_rx v1.5.9
EA1JAY-16S44402862022-12-06 13:34:2843.3552-7.4876992019301Clb=-11.0m/s p=60.7hPa t=-59.9C h=1.4% 404.000MHz Type=RS41-SGP TxOff=8h20m rdzTTGOsonde
EA1JAY-16S44402862022-12-06 13:34:0743.356-7.489291803119567Clb=-12.7m/s p=58.2hPa t=-61.1C h=1.5% 404.000MHz Type=RS41-SGP TxOff=8h20m rdzTTGOsonde
EB4FMT-14S44402862022-12-06 13:34:0043.3568-7.489341993319682Clb=-12.1m/s t=-61.2C h=1.5% p=57.1hPa 404.001 MHz Type=RS41-SGP ser=S4440286 Radiosonde auto_rx v1.5.9
EA1JAY-15S44402862022-12-06 13:33:5943.3568-7.489342013519682Clb=-12.1m/s p=57.1hPa t=-61.2C h=1.5% 404.000MHz Type=RS41-SGP rdzTTGOsonde
EA1JAY-16S44402862022-12-06 13:33:4843.3574-7.488442273319825Clb=-13.3m/s p=55.7hPa t=-61.0C h=1.5% 404.000MHz Type=RS41-SGP TxOff=8h21m rdzTTGOsonde
EA4EKH-11S44402862022-12-06 13:33:3743.3573-7.48861174320059Clb=-14.0m/s t=-61.5C h=1.4% p=53.6hPa 404.001 MHz Type=RS41-SGP ser=S4440286 Radiosonde
EB4FMT-14S44402862022-12-06 13:33:3043.3575-7.488821453920088Clb=-13.8m/s t=-61.5C h=1.5% p=53.3hPa 404.001 MHz Type=RS41-SGP ser=S4440286 Radiosonde auto_rx v1.5.9
EA1JAY-16S44402862022-12-06 13:33:2643.3576-7.488891853020114Clb=-12.1m/s p=53.2hPa t=-61.4C h=1.6% 404.000MHz Type=RS41-SGP TxOff=8h21m rdzTTGOsonde
EA1JAY-15S44402862022-12-06 13:33:2343.3577-7.488692871720167Clb=-14.0m/s p=52.8hPa t=-60.9C h=1.4% 404.000MHz Type=RS41-SGP rdzTTGOsonde
EA1JAY-16S44402862022-12-06 13:33:0743.3581-7.489631775020390Clb=-14.3m/s p=50.9hPa t=-61.2C h=1.4% 404.000MHz Type=RS41-SGP TxOff=8h21m rdzTTGOsonde
EA4EKH-11S44402862022-12-06 13:33:0643.3583-7.489621874820419Clb=-14.2m/s t=-61.4C h=1.4% p=50.7hPa 404.001 MHz Type=RS41-SGP ser=S4440286 Radiosonde
EB4FMT-14S44402862022-12-06 13:33:0043.3588-7.489122454320502Clb=-14.5m/s t=-61.8C h=1.5% p=50.0hPa 404.001 MHz Type=RS41-SGP ser=S4440286 Radiosonde auto_rx v1.5.9
EA1JAY-15S44402862022-12-06 13:32:5743.3589-7.488992554120517Clb=-15.1m/s p=49.9hPa t=-61.8C h=1.5% 404.000MHz Type=RS41-SGP rdzTTGOsonde
EA1JAY-16S44402862022-12-06 13:32:4643.3589-7.488861544620678Clb=-14.4m/s p=48.5hPa t=-61.5C h=1.4% 404.000MHz Type=RS41-SGP TxOff=8h22m rdzTTGOsonde
EA4EKH-11S44402862022-12-06 13:32:3543.3597-7.48813681720868Clb=-14.7m/s t=-61.2C h=1.3% p=47.1hPa 404.001 MHz Type=RS41-SGP ser=S4440286 Radiosonde
EA1JAY-16S44402862022-12-06 13:32:2543.3604-7.488342095620986Clb=-15.6m/s p=46.2hPa t=-61.4C h=1.4% 404.000MHz Type=RS41-SGP TxOff=8h22m rdzTTGOsonde
EA1JAY-15S44402862022-12-06 13:32:2143.3607-7.487792654321045Clb=-14.0m/s p=45.8hPa t=-61.7C h=1.4% 404.000MHz Type=RS41-SGP rdzTTGOsonde
EA1JAY-16S44402862022-12-06 13:32:0443.3611-7.487152276521303Clb=-15.8m/s p=43.9hPa t=-62.1C h=1.5% 404.000MHz Type=RS41-SGP TxOff=8h23m rdzTTGOsonde
EB4FMT-14S44402862022-12-06 13:32:0043.3612-7.4862111721413Clb=-16.1m/s t=-62.1C h=1.4% p=43.1hPa 404.001 MHz Type=RS41-SGP ser=S4440286 Radiosonde auto_rx v1.5.9
EA1JAY-16S44402862022-12-06 13:31:4443.362-7.485622695221619Clb=-16.2m/s p=41.7hPa t=-61.4C h=1.3% 404.000MHz Type=RS41-SGP TxOff=8h23m rdzTTGOsonde
EA4EKH-11S44402862022-12-06 13:31:3343.362-7.485431984821828Clb=-15.4m/s t=-61.1C h=1.2% p=40.3hPa 404.001 MHz Type=RS41-SGP ser=S4440286 Radiosonde
EA1JAY-15S44402862022-12-06 13:31:2343.3623-7.484293264321968Clb=-16.4m/s p=39.4hPa t=-61.2C h=1.3% 404.000MHz Type=RS41-SGP rdzTTGOsonde
EA1JAY-16S44402862022-12-06 13:31:0343.3622-7.48475924822321Clb=-18.9m/s p=37.2hPa t=-60.0C h=1.1% 404.000MHz Type=RS41-SGP TxOff=8h24m rdzTTGOsonde
EA1JAY-15S44402862022-12-06 13:30:5943.3624-7.485171535422374Clb=-16.1m/s p=36.9hPa t=-60.1C h=1.1% 404.000MHz Type=RS41-SGP rdzTTGOsonde
EA1JAY-16S44402862022-12-06 13:30:4243.3632-7.484862006522667Clb=-18.6m/s p=35.2hPa t=-59.8C h=1.1% 404.000MHz Type=RS41-SGP TxOff=8h24m rdzTTGOsonde
EA1JAY-15S44402862022-12-06 13:30:3743.3636-7.48412934322755Clb=-18.6m/s p=34.7hPa t=-59.7C h=1.1% 404.000MHz Type=RS41-SGP rdzTTGOsonde
EA4EKH-11S44402862022-12-06 13:30:3143.3639-7.484651669422897Clb=-18.9m/s t=-59.8C h=1.0% p=33.9hPa 404.001 MHz Type=RS41-SGP ser=S4440286 Radiosonde
EB4FMT-14S44402862022-12-06 13:30:3043.3642-7.484691779822916Clb=-20.2m/s t=-60.0C h=1.0% p=33.8hPa 404.001 MHz Type=RS41-SGP ser=S4440286 Radiosonde auto_rx v1.5.9
EA1JAY-16S44402862022-12-06 13:30:2243.3651-7.484222541323019Clb=-18.1m/s p=33.3hPa t=-59.9C h=1.1% 404.000MHz Type=RS41-SGP TxOff=8h24m rdzTTGOsonde
EA1JAY-15S44402862022-12-06 13:30:1643.3655-7.485051588323170Clb=-19.3m/s p=32.4hPa t=-60.2C h=1.1% 404.000MHz Type=RS41-SGP rdzTTGOsonde
CT7AUS-11S44402862022-12-06 13:30:1143.3663-7.48419483123361Clb=-17.5m/s t=-60.1C h=1.0% p=31.4hPa 404.000 MHz Type=RS41-SGP ser=S4440286 Radiosonde
EA1JAY-16S44402862022-12-06 13:30:0543.3665-7.484621467223415Clb=-20.3m/s p=31.2hPa t=-60.2C h=1.1% 404.000MHz Type=RS41-SGP TxOff=8h24m rdzTTGOsonde
EB4FMT-14S44402862022-12-06 13:30:0343.367-7.484741958123473Clb=-18.6m/s t=-60.2C h=1.1% p=30.9hPa 404.001 MHz Type=RS41-SGP ser=S4440286 Radiosonde auto_rx v1.5.9
EA1JAY-15S44402862022-12-06 13:29:5343.3674-7.483852954823567Clb=-18.7m/s p=30.5hPa t=-60.6C h=1.2% 404.000MHz Type=RS41-SGP rdzTTGOsonde
EA1JAY-16S44402862022-12-06 13:29:4143.3681-7.483992418123799Clb=-22.5m/s p=29.3hPa t=-60.1C h=1.1% 404.000MHz Type=RS41-SGP TxOff=8h24m rdzTTGOsonde
CT7AUS-11S44402862022-12-06 13:29:3743.3678-7.48329565023918Clb=-19.8m/s t=-59.8C h=1.1% p=28.8hPa 404.000 MHz Type=RS41-SGP ser=S4440286 Radiosonde
EA1JAY-15S44402862022-12-06 13:29:3343.3678-7.483631225623955Clb=-19.6m/s p=28.6hPa t=-59.7C h=1.1% 404.000MHz Type=RS41-SGP TxOff=8h25m rdzTTGOsonde
EB4FMT-14S44402862022-12-06 13:29:3043.3684-7.483412556524053Clb=-21.7m/s t=-59.2C h=1.0% p=28.1hPa 404.001 MHz Type=RS41-SGP ser=S4440286 Radiosonde auto_rx v1.5.9
EA1JAY-16S44402862022-12-06 13:29:2043.3678-7.483661187424214Clb=-19.9m/s p=27.4hPa t=-58.5C h=1.0% 404.000MHz Type=RS41-SGP TxOff=8h25m rdzTTGOsonde
EA1JAY-15S44402862022-12-06 13:29:1243.3682-7.4833715724371Clb=-20.0m/s p=26.8hPa t=-58.3C h=0.9% 404.000MHz Type=RS41-SGP TxOff=8h25m rdzTTGOsonde
CT7AUS-11S44402862022-12-06 13:29:0543.3683-7.484652075024572Clb=-22.0m/s t=-58.9C h=1.0% p=25.9hPa 404.000 MHz Type=RS41-SGP ser=S4440286 Radiosonde
EA1JAY-16S44402862022-12-06 13:29:0143.3684-7.484392624624616Clb=-22.4m/s p=25.7hPa t=-58.8C h=1.0% 404.000MHz Type=RS41-SGP TxOff=8h25m rdzTTGOsonde
EB4FMT-14S44402862022-12-06 13:29:0043.3682-7.484033485424677Clb=-21.4m/s t=-58.8C h=0.9% p=25.4hPa 404.001 MHz Type=RS41-SGP ser=S4440286 Radiosonde auto_rx v1.5.9
EA1JAY-15S44402862022-12-06 13:28:5343.3678-7.484811087824785Clb=-21.4m/s p=25.1hPa t=-59.0C h=0.9% 404.000MHz Type=RS41-SGP TxOff=8h25m rdzTTGOsonde
EA1JAY-16S44402862022-12-06 13:28:4043.3682-7.48477936325042Clb=-22.4m/s p=24.0hPa t=-59.8C h=1.0% 404.000MHz Type=RS41-SGP TxOff=8h26m rdzTTGOsonde
CT7AUS-11S44402862022-12-06 13:28:3543.3692-7.484392796125219Clb=-24.5m/s t=-60.6C h=1.1% p=23.4hPa 404.000 MHz Type=RS41-SGP ser=S4440286 Radiosonde
EA1JAY-15S44402862022-12-06 13:28:3243.3691-7.484213095225243Clb=-23.2m/s p=23.3hPa t=-60.6C h=1.1% 404.000MHz Type=RS41-SGP rdzTTGOsonde
EA4EKH-11S44402862022-12-06 13:28:2743.369-7.4851369125376Clb=-22.7m/s t=-60.2C h=1.0% p=22.8hPa 404.001 MHz Type=RS41-SGP ser=S4440286 Radiosonde
EA1JAY-16S44402862022-12-06 13:28:2043.3697-7.484633135425516Clb=-24.1m/s p=22.2hPa t=-60.2C h=1.1% 404.000MHz Type=RS41-SGP TxOff=8h26m rdzTTGOsonde
EA1JAY-15S44402862022-12-06 13:28:1243.37-7.48572296725725Clb=-23.1m/s p=21.6hPa t=-60.1C h=1.1% 404.000MHz Type=RS41-SGP rdzTTGOsonde
EA1JAY-16S44402862022-12-06 13:27:5943.3703-7.486212535726007Clb=-24.8m/s p=20.6hPa t=-59.8C h=1.0% 404.000MHz Type=RS41-SGP TxOff=8h26m rdzTTGOsonde
EA4EKH-11S44402862022-12-06 13:27:5643.37-7.487131489826199Clb=-22.8m/s t=-59.0C h=0.9% p=20.0hPa 404.001 MHz Type=RS41-SGP ser=S4440286 Radiosonde
EA1JAY-15S44402862022-12-06 13:27:5043.37-7.487131499826199Clb=-22.8m/s p=20.0hPa t=-59.0C h=0.9% 404.000MHz Type=RS41-SGP rdzTTGOsonde
EA1JAY-16S44402862022-12-06 13:27:3843.3709-7.488521858126517Clb=-24.5m/s p=19.1hPa t=-59.9C h=1.0% 404.000MHz Type=RS41-SGP TxOff=8h27m rdzTTGOsonde
EA1JAY-15S44402862022-12-06 13:27:2843.3711-7.489731499426762Clb=-24.2m/s p=18.3hPa t=-60.9C h=1.1% 404.000MHz Type=RS41-SGP rdzTTGOsonde
EA1JAY-16S44402862022-12-06 13:27:1743.3711-7.490311109627012Clb=-23.1m/s p=17.6hPa t=-61.0C h=1.1% 404.000MHz Type=RS41-SGP TxOff=8h27m rdzTTGOsonde
EA1JAY-15S44402862022-12-06 13:27:0443.3719-7.4921814011127369Clb=-26.1m/s p=16.6hPa t=-61.1C h=1.1% 404.000MHz Type=RS41-SGP rdzTTGOsonde
CT7AUS-11S44402862022-12-06 13:27:0143.3725-7.49233264427522Clb=-28.4m/s t=-60.9C h=1.0% p=16.2hPa 404.000 MHz Type=RS41-SGP ser=S4440286 Radiosonde
EB4FMT-14S44402862022-12-06 13:27:0043.3725-7.49233264427522Clb=-28.4m/s t=-60.9C h=1.0% p=16.2hPa 404.001 MHz Type=RS41-SGP ser=S4440286 Radiosonde auto_rx v1.5.9
EA1JAY-16S44402862022-12-06 13:26:5743.3725-7.49233274627522Clb=-28.4m/s p=16.2hPa t=-60.9C h=1.0% 404.000MHz Type=RS41-SGP TxOff=8h28m rdzTTGOsonde
EA4EKH-11S44402862022-12-06 13:26:5343.3728-7.4943316011727710Clb=-27.6m/s t=-61.4C h=1.0% p=15.7hPa 404.001 MHz Type=RS41-SGP ser=S4440286 Radiosonde
EA1JAY-15S44402862022-12-06 13:26:4243.3732-7.4954912613527948Clb=-27.3m/s p=15.1hPa t=-62.2C h=1.2% 404.000MHz Type=RS41-SGP rdzTTGOsonde
EA1JAY-16S44402862022-12-06 13:26:3743.3741-7.495862732428079Clb=-27.3m/s p=14.8hPa t=-62.2C h=1.2% 404.000MHz Type=RS41-SGP TxOff=8h28m rdzTTGOsonde
CT7AUS-11S44402862022-12-06 13:26:3143.3751-7.498021993028388Clb=-27.1m/s t=-61.1C h=1.0% p=14.1hPa 404.000 MHz Type=RS41-SGP ser=S4440286 Radiosonde
EA1JAY-15S44402862022-12-06 13:26:2143.3752-7.49812983728465Clb=-25.4m/s p=13.9hPa t=-61.5C h=1.1% 404.000MHz Type=RS41-SGP rdzTTGOsonde
EA1JAY-16S44402862022-12-06 13:26:1543.3759-7.4994215010728626Clb=-30.6m/s p=13.6hPa t=-61.9C h=1.2% 404.000MHz Type=RS41-SGP TxOff=8h28m rdzTTGOsonde
EA1JAY-16S44402862022-12-06 13:25:5543.3781-7.500492434129217Clb=-32.1m/s p=12.3hPa t=-58.5C h=1.0% 404.000MHz Type=RS41-SGP TxOff=8h29m rdzTTGOsonde
EA1JAY-15S44402862022-12-06 13:25:5343.3779-7.50043327029310Clb=-29.2m/s p=12.1hPa t=-58.2C h=1.0% 404.000MHz Type=RS41-SGP TxOff=8h29m rdzTTGOsonde
EA4EKH-11S44402862022-12-06 13:25:5143.3776-7.5020910912229455Clb=-31.0m/s t=-57.2C h=0.8% p=11.9hPa 404.001 MHz Type=RS41-SGP ser=S4440286 Radiosonde
EA1JAY-16S44402862022-12-06 13:25:3843.3778-7.5051411113929865Clb=-33.1m/s p=11.1hPa t=-55.7C h=0.8% 404.000MHz Type=RS41-SGP TxOff=8h29m rdzTTGOsonde
EB4FMT-14S44402862022-12-06 13:25:3143.3787-7.506032631330047Clb=-31.9m/s t=-56.9C h=0.8% p=10.8hPa 404.001 MHz Type=RS41-SGP ser=S4440286 Radiosonde auto_rx v1.5.9
CT7AUS-11S44402862022-12-06 13:25:3043.3786-7.50604275230110Clb=-31.6m/s t=-57.1C h=0.8% p=10.7hPa 404.000 MHz Type=RS41-SGP ser=S4440286 Radiosonde
EA1JAY-15S44402862022-12-06 13:25:2843.3786-7.50604295430111Clb=-31.6m/s p=10.7hPa t=-57.1C h=0.8% 404.000MHz Type=RS41-SGP TxOff=8h29m rdzTTGOsonde
EA4EKH-11S44402862022-12-06 13:25:2443.3789-7.508471638930363Clb=-33.2m/s t=-56.4C h=0.7% p=10.3hPa 404.001 MHz Type=RS41-SGP ser=S4440286 Radiosonde
EA1JAY-16S44402862022-12-06 13:25:1443.3791-7.50841246530501Clb=-34.7m/s p=10.0hPa t=-56.3C h=0.7% 404.000MHz Type=RS41-SGP TxOff=8h29m rdzTTGOsonde
EA1JAY-15S44402862022-12-06 13:25:0443.3796-7.51147696130865Clb=-31.2m/s p=9.5hPa t=-55.5C h=0.8% 404.000MHz Type=RS41-SGP rdzTTGOsonde
EB4FMT-14S44402862022-12-06 13:25:0043.3794-7.513369013031019Clb=-39.7m/s t=-54.7C h=0.7% p=9.3hPa 404.001 MHz Type=RS41-SGP ser=S4440286 Radiosonde auto_rx v1.5.9
CT7AUS-11S44402862022-12-06 13:24:5843.3794-7.51483907831168Clb=-35.5m/s t=-54.9C h=0.7% p=9.1hPa 404.000 MHz Type=RS41-SGP ser=S4440286 Radiosonde
EA1JAY-16S44402862022-12-06 13:24:5343.3794-7.51507906331203Clb=-35.4m/s p=9.1hPa t=-55.1C h=0.7% 404.000MHz Type=RS41-SGP TxOff=8h29m rdzTTGOsonde
EA4EKH-11S44402862022-12-06 13:24:5043.379-7.51647808531502Clb=-35.4m/s t=-54.5C h=0.7% p=8.6hPa 404.001 MHz Type=RS41-SGP ser=S4440286 Radiosonde
EA1JAY-15S44402862022-12-06 13:24:3543.3794-7.5204847431943Clb=-43.8m/s p=8.1hPa t=-54.3C h=0.7% 404.000MHz Type=RS41-SGP rdzTTGOsonde
EA1JAY-16S44402862022-12-06 13:24:3443.3794-7.52066927831984Clb=-40.1m/s p=8.0hPa t=-54.2C h=0.7% 404.000MHz Type=RS41-SGP TxOff=8h29m rdzTTGOsonde
EB4FMT-14S44402862022-12-06 13:24:3143.3796-7.5219511212632123Clb=-33.9m/s t=-53.9C h=0.7% p=7.9hPa 404.001 MHz Type=RS41-SGP ser=S4440286 Radiosonde auto_rx v1.5.9
CT7AUS-11S44402862022-12-06 13:24:2643.3801-7.5235910712032273Clb=-37.6m/s t=-54.0C h=0.7% p=7.7hPa 404.000 MHz Type=RS41-SGP ser=S4440286 Radiosonde
EA4EKH-11S44402862022-12-06 13:24:1843.3806-7.5265610712632567Clb=-41.8m/s t=-53.1C h=0.6% p=7.4hPa 404.001 MHz Type=RS41-SGP ser=S4440286 Radiosonde
EA1JAY-16S44402862022-12-06 13:24:1343.3809-7.5282610613132758Clb=-48.8m/s p=7.2hPa t=-52.6C h=0.6% 404.000MHz Type=RS41-SGP rdzTTGOsonde
EA1JAY-15S44402862022-12-06 13:24:1243.3811-7.5291210612832853Clb=-45.3m/s p=7.0hPa t=-52.5C h=0.6% 404.000MHz Type=RS41-SGP rdzTTGOsonde
EB4FMT-14S44402862022-12-06 13:24:0143.3824-7.5350810517033306Clb=-19.5m/s t=-51.7C h=0.6% p=6.5hPa 404.001 MHz Type=RS41-SGP ser=S4440286 Radiosonde auto_rx v1.5.9
CT7AUS-11S44402862022-12-06 13:23:5543.3829-7.5377810614433312Clb=6.3m/s t=-51.7C h=0.5% p=6.5hPa 404.000 MHz Type=RS41-SGP ser=S4440286 Radiosonde
EA1JAY-16S44402862022-12-06 13:23:5143.3832-7.5386910813533301Clb=3.7m/s p=6.5hPa t=-51.8C h=0.6% 404.000MHz Type=RS41-SGP rdzTTGOsonde
EA4EKH-11S44402862022-12-06 13:23:4743.3839-7.5418110618133274Clb=4.5m/s t=-52.0C h=0.6% p=6.5hPa 404.001 MHz Type=RS41-SGP ser=S4440286 Radiosonde
EA1JAY-15S44402862022-12-06 13:23:4343.3841-7.5429910617433266Clb=4.0m/s p=6.5hPa t=-52.0C h=0.6% 404.000MHz Type=RS41-SGP rdzTTGOsonde
EB4FMT-14S44402862022-12-06 13:23:1043.4386-7.798861454129061Clb=6.2m/s t=-61.3C h=1.1% p=12.6hPa 404.001 MHz Type=RS41-SGP ser=S4440286 Radiosonde auto_rx v1.5.9
CT7AUS-11S44402862022-12-06 13:23:0243.439-7.799261483329034Clb=5.2m/s t=-61.6C h=1.1% p=12.7hPa 404.000 MHz Type=RS41-SGP ser=S4440286 Radiosonde
EA1JAY-15S44402862022-12-06 13:23:0143.439-7.799261493529034Clb=5.2m/s p=12.7hPa t=-61.6C 404.000MHz Type=RS41-SGP rdzTTGOsonde
EA1JAY-15S44402862022-12-06 13:22:3543.4408-7.800291634428924Clb=5.7m/s p=12.9hPa t=-61.4C 404.000MHz Type=RS41-SGP rdzTTGOsonde
EB4FMT-14S44402862022-12-06 13:22:2943.4415-7.800491706128896Clb=4.8m/s t=-61.7C h=1.1% p=13.0hPa 404.001 MHz Type=RS41-SGP ser=S4440286 Radiosonde auto_rx v1.5.9
CT7AUS-11S44402862022-12-06 13:22:2143.4422-7.800861544428864Clb=5.6m/s t=-62.0C h=1.2% p=13.0hPa 404.000 MHz Type=RS41-SGP ser=S4440286 Radiosonde
EA1JAY-15S44402862022-12-06 13:22:0243.444-7.801361715028788Clb=5.4m/s p=13.2hPa t=-61.9C 404.000MHz Type=RS41-SGP rdzTTGOsonde
EB4FMT-14S44402862022-12-06 13:21:5143.4452-7.801691565628737Clb=5.4m/s t=-61.8C h=1.2% p=13.3hPa 404.001 MHz Type=RS41-SGP ser=S4440286 Radiosonde auto_rx v1.5.9
CT7AUS-11S44402862022-12-06 13:21:4343.4463-7.802181635228693Clb=5.0m/s t=-61.7C h=1.2% p=13.4hPa 404.000 MHz Type=RS41-SGP ser=S4440286 Radiosonde
EA1JAY-15S44402862022-12-06 13:21:3843.4466-7.802281665228683Clb=5.8m/s p=13.4hPa t=-61.7C 404.000MHz Type=RS41-SGP rdzTTGOsonde
EB4FMT-14S44402862022-12-06 13:21:1643.4493-7.803981496728577Clb=6.0m/s t=-61.3C h=1.1% p=13.7hPa 404.001 MHz Type=RS41-SGP ser=S4440286 Radiosonde auto_rx v1.5.9
EA1JAY-15S44402862022-12-06 13:21:0843.45-7.804611536928552Clb=5.7m/s p=13.7hPa t=-61.4C 404.000MHz Type=RS41-SGP rdzTTGOsonde
EA1JAY-15S44402862022-12-06 13:20:4343.4526-7.807471346328449Clb=5.8m/s p=13.9hPa t=-61.5C 404.000MHz Type=RS41-SGP rdzTTGOsonde
EB4FMT-14S44402862022-12-06 13:20:3943.4531-7.808361316928423Clb=5.5m/s t=-61.4C h=1.1% p=14.0hPa 404.001 MHz Type=RS41-SGP ser=S4440286 Radiosonde auto_rx v1.5.9
CT7AUS-11S44402862022-12-06 13:20:2643.4542-7.809941266928378Clb=4.2m/s t=-61.1C h=1.1% p=14.1hPa 404.000 MHz Type=RS41-SGP ser=S4440286 Radiosonde
EA1JAY-15S44402862022-12-06 13:20:0543.4549-7.811731316728333Clb=5.1m/s t=-61.8C 404.000MHz Type=RS41-SGP rdzTTGOsonde
EB4FMT-14S44402862022-12-06 13:19:5143.456-7.814341087428276Clb=3.6m/s t=-62.5C h=1.2% p=14.3hPa 404.001 MHz Type=RS41-SGP ser=S4440286 Radiosonde auto_rx v1.5.9
EA1JAY-15S44402862022-12-06 13:19:3943.4565-7.815921146728237Clb=4.1m/s t=-62.3C 404.000MHz Type=RS41-SGP rdzTTGOsonde
CT7AUS-11S44402862022-12-06 13:19:3843.4566-7.816341146528228Clb=5.4m/s t=-62.4C h=1.3% p=14.5hPa 404.000 MHz Type=RS41-SGP ser=S4440286 Radiosonde
EA1JAY-15S44402862022-12-06 13:19:1243.4577-7.819681235628140Clb=4.8m/s t=-62.2C 404.000MHz Type=RS41-SGP rdzTTGOsonde
EB4FMT-14S44402862022-12-06 13:19:1143.4578-7.819991215228130Clb=5.5m/s t=-62.3C h=1.2% p=14.7hPa 404.001 MHz Type=RS41-SGP ser=S4440286 Radiosonde auto_rx v1.5.9
CT7AUS-11S44402862022-12-06 13:18:5643.4585-7.821811165928076Clb=4.2m/s t=-62.3C h=1.2% p=14.8hPa 404.000 MHz Type=RS41-SGP ser=S4440286 Radiosonde
EA1JAY-15S44402862022-12-06 13:18:4543.459-7.822821184628040Clb=5.0m/s t=-62.5C 404.000MHz Type=RS41 rdzTTGOsonde
EB4FMT-14S44402862022-12-06 13:18:3443.4596-7.824711104127980Clb=4.8m/s t=-62.2C h=1.2% p=15.0hPa 404.001 MHz Type=RS41-SGP ser=S4440286 Radiosonde auto_rx v1.5.9
EA1JAY-15S44402862022-12-06 13:18:1943.46-7.826031175427935Clb=5.7m/s 404.000MHz Type=RS41 rdzTTGOsonde
CT7AUS-11S44402862022-12-06 13:18:1743.4601-7.826531095027920Clb=4.2m/s t=-62.1C h=-1.0% p=15.2hPa 404.000 MHz Type=RS41-SGP ser=S4440286 Radiosonde
EA1JAY-15S44402862022-12-06 13:17:5243.461-7.82911143927827Clb=4.7m/s 404.000MHz Type=RS41 rdzTTGOsonde
CT7AUS-11S44402862022-12-06 13:17:3443.4615-7.831031044827761Clb=4.5m/s t=-61.5C h=-1.0% p=-1.0hPa 404.000 MHz Type=RS41 ser=S4440286 Radiosonde
EA1JAY-15S44402862022-12-06 13:17:1743.4619-7.832631235227704Clb=4.6m/s 404.000MHz Type=RS41 rdzTTGOsonde
EB4FMT-14S44402862022-12-06 13:17:0843.4623-7.833681115727673Clb=4.9m/s t=-61.2C h=1.2% p=15.8hPa 404.001 MHz Type=RS41-SGP ser=S4440286 Radiosonde auto_rx v1.5.9
CT7AUS-11S44402862022-12-06 13:16:4943.4629-7.836111046727600Clb=5.0m/s t=-273.0C h=-1.0% p=-1.0hPa 404.000 MHz Type=RS41 ser=S4440286 Radiosonde
EB4FMT-14S44402862022-12-06 13:16:2943.4635-7.838841115727516Clb=5.3m/s t=-60.7C h=1.1% p=16.2hPa 404.001 MHz Type=RS41-SGP ser=S4440286 Radiosonde auto_rx v1.5.9
EB4FMT-14S44402862022-12-06 13:15:5343.4643-7.843841025227352Clb=4.8m/s t=-61.0C h=1.2% p=16.7hPa 404.001 MHz Type=RS41-SGP ser=S4440286 Radiosonde auto_rx v1.5.9
EB4FMT-14S44402862022-12-06 13:15:1043.4648-7.847471092827206Clb=5.4m/s t=-60.7C h=1.1% p=17.0hPa 404.001 MHz Type=RS41-SGP ser=S4440286 Radiosonde auto_rx v1.5.9
EB4FMT-14S44402862022-12-06 13:14:2943.4662-7.85191062626968Clb=5.2m/s t=-60.7C h=1.1% p=17.7hPa 404.001 MHz Type=RS41-SGP ser=S4440286 Radiosonde auto_rx v1.5.9
EB4FMT-14S44402862022-12-06 13:13:5143.4665-7.85323972026906Clb=5.5m/s t=-60.7C h=1.1% p=17.9hPa 404.001 MHz Type=RS41-SGP ser=S4440286 Radiosonde auto_rx v1.5.9
EB4FMT-14S44402862022-12-06 13:13:0643.4667-7.855671181926770Clb=5.8m/s t=-60.4C h=1.1% p=18.3hPa 404.001 MHz Type=RS41-SGP ser=S4440286 Radiosonde auto_rx v1.5.9
EB4FMT-14S44402862022-12-06 13:12:2343.4675-7.858351262626626Clb=5.2m/s t=-59.9C h=1.1% p=18.7hPa 404.001 MHz Type=RS41-SGP ser=S4440286 Radiosonde auto_rx v1.5.9
EA4EKH-11S44402862022-12-06 13:12:0143.4694-7.863081183026410Clb=5.2m/s t=-59.4C h=1.1% p=19.3hPa 404.001 MHz Type=RS41-SGP ser=S4440286 Radiosonde
EB4FMT-14S44402862022-12-06 13:11:5443.4699-7.864661243326336Clb=4.8m/s t=-59.4C h=1.0% p=19.6hPa 404.001 MHz Type=RS41-SGP ser=S4440286 Radiosonde auto_rx v1.5.9
EB4FMT-14S44402862022-12-06 13:11:4743.471-7.867311152226186Clb=4.7m/s t=-59.8C h=1.1% p=20.1hPa 404.001 MHz Type=RS41-SGP ser=S4440286 Radiosonde auto_rx v1.5.9
EB4FMT-14S44402862022-12-06 13:11:3943.4712-7.86887661126034Clb=5.5m/s t=-60.0C h=1.1% p=20.6hPa 404.001 MHz Type=RS41-SGP ser=S4440286 Radiosonde auto_rx v1.5.9
EB4FMT-14S44402862022-12-06 13:11:3843.4714-7.86989137725876Clb=4.8m/s t=-60.4C h=1.1% p=21.1hPa 404.001 MHz Type=RS41-SGP ser=S4440286 Radiosonde auto_rx v1.5.9
EA4EKH-11S44402862022-12-06 13:11:3743.4715-7.869981311525861Clb=4.3m/s t=-60.3C h=1.1% p=21.1hPa 404.001 MHz Type=RS41-SGP ser=S4440286 Radiosonde
EB4FMT-14S44402862022-12-06 13:11:3243.4722-7.8706289725733Clb=4.4m/s t=-60.1C h=1.1% p=21.6hPa 404.001 MHz Type=RS41-SGP ser=S4440286 Radiosonde auto_rx v1.5.9
EA4EKH-11S44402862022-12-06 13:11:2943.4722-7.870931132425710Clb=4.4m/s t=-60.3C h=1.2% p=21.6hPa 404.001 MHz Type=RS41-SGP ser=S4440286 Radiosonde
EB4FMT-14S44402862022-12-06 13:11:0943.4726-7.87194881325588Clb=5.3m/s t=-60.4C h=1.2% p=22.1hPa 404.001 MHz Type=RS41-SGP ser=S4440286 Radiosonde auto_rx v1.5.9
EA4EKH-11S44402862022-12-06 13:10:5943.4728-7.872781291925498Clb=5.7m/s t=-60.3C h=1.2% p=22.4hPa 404.001 MHz Type=RS41-SGP ser=S4440286 Radiosonde
EB4FMT-14S44402862022-12-06 13:10:2443.4731-7.873261111125447Clb=4.2m/s t=-60.2C h=1.2% p=22.6hPa 404.001 MHz Type=RS41-SGP ser=S4440286 Radiosonde auto_rx v1.5.9
EA4EKH-11S44402862022-12-06 13:10:1243.4735-7.87357162925394Clb=4.6m/s t=-59.9C h=1.1% p=22.8hPa 404.001 MHz Type=RS41-SGP ser=S4440286 Radiosonde
EB4FMT-14S44402862022-12-06 13:09:3243.4744-7.873722021325304Clb=5.5m/s t=-60.3C h=1.2% p=23.1hPa 404.001 MHz Type=RS41-SGP ser=S4440286 Radiosonde auto_rx v1.5.9
EA4EKH-11S44402862022-12-06 13:09:1743.4752-7.873422091925243Clb=4.7m/s t=-60.2C h=1.1% p=23.3hPa 404.001 MHz Type=RS41-SGP ser=S4440286 Radiosonde
EB4FMT-14S44402862022-12-06 13:08:4043.476-7.872862082825162Clb=4.7m/s t=-60.4C h=1.2% p=23.6hPa 404.001 MHz Type=RS41-SGP ser=S4440286 Radiosonde auto_rx v1.5.9
EB4FMT-14S44402862022-12-06 13:07:4443.4782-7.87231771524991Clb=5.5m/s t=-59.3C h=1.1% p=24.3hPa 404.001 MHz Type=RS41-SGP ser=S4440286 Radiosonde auto_rx v1.5.9
EA4EKH-11S44402862022-12-06 13:07:2343.4784-7.872452051724953Clb=5.7m/s t=-58.9C h=1.1% p=24.4hPa 404.001 MHz Type=RS41-SGP ser=S4440286 Radiosonde
EB4FMT-14S44402862022-12-06 13:06:5143.4793-7.873231382224818Clb=4.4m/s t=-58.9C h=1.1% p=24.9hPa 404.001 MHz Type=RS41-SGP ser=S4440286 Radiosonde auto_rx v1.5.9
EA4EKH-11S44402862022-12-06 13:06:3443.4794-7.87331651924808Clb=5.4m/s t=-58.9C h=1.1% p=25.0hPa 404.001 MHz Type=RS41-SGP ser=S4440286 Radiosonde
EB4FMT-14S44402862022-12-06 13:06:0743.4799-7.87411731324664Clb=4.4m/s t=-60.1C h=1.2% p=25.6hPa 404.001 MHz Type=RS41-SGP ser=S4440286 Radiosonde auto_rx v1.5.9
EA4EKH-11S44402862022-12-06 13:05:4843.48-7.87411172924660Clb=4.1m/s t=-60.0C h=1.2% p=25.6hPa 404.001 MHz Type=RS41-SGP ser=S4440286 Radiosonde
EB4FMT-14S44402862022-12-06 13:05:2143.4801-7.87472112624567Clb=4.1m/s t=-59.8C h=1.1% p=26.0hPa 404.001 MHz Type=RS41-SGP ser=S4440286 Radiosonde auto_rx v1.5.9
EA4EKH-11S44402862022-12-06 13:04:5943.4802-7.87494159224511Clb=4.0m/s t=-59.8C h=1.2% p=26.2hPa 404.001 MHz Type=RS41-SGP ser=S4440286 Radiosonde
EB4FMT-14S44402862022-12-06 13:04:3343.4805-7.8751761124425Clb=4.5m/s t=-59.9C h=1.1% p=26.6hPa 404.001 MHz Type=RS41-SGP ser=S4440286 Radiosonde auto_rx v1.5.9
EA4EKH-11S44402862022-12-06 13:04:0743.4807-7.87527110224354Clb=4.8m/s t=-60.6C h=1.2% p=26.9hPa 404.001 MHz Type=RS41-SGP ser=S4440286 Radiosonde
EB4FMT-14S44402862022-12-06 13:03:3743.4809-7.87522551924208Clb=4.7m/s t=-61.4C h=1.3% p=27.5hPa 404.001 MHz Type=RS41-SGP ser=S4440286 Radiosonde auto_rx v1.5.9
EA4EKH-11S44402862022-12-06 13:03:1343.4809-7.87522551924208Clb=4.7m/s t=-61.4C h=1.3% p=27.5hPa 404.001 MHz Type=RS41-SGP ser=S4440286 Radiosonde
EB4FMT-14S44402862022-12-06 13:02:5343.4816-7.874112262224076Clb=4.4m/s t=-61.1C h=1.2% p=28.1hPa 404.001 MHz Type=RS41-SGP ser=S4440286 Radiosonde auto_rx v1.5.9
EA4EKH-11S44402862022-12-06 13:02:2943.4817-7.874022142224068Clb=4.2m/s t=-61.3C h=1.2% p=28.1hPa 404.001 MHz Type=RS41-SGP ser=S4440286 Radiosonde
EA4EKH-11S44402862022-12-06 13:01:4143.4833-7.872622152223936Clb=4.6m/s t=-61.6C h=1.3% p=28.7hPa 404.001 MHz Type=RS41-SGP ser=S4440286 Radiosonde
EB4FMT-14S44402862022-12-06 13:01:2043.4845-7.87142042223823Clb=4.9m/s t=-61.6C h=1.3% p=29.3hPa 404.001 MHz Type=RS41-SGP ser=S4440286 Radiosonde auto_rx v1.5.9
EA4EKH-11S44402862022-12-06 13:00:4443.4852-7.870962132823774Clb=3.1m/s t=-61.5C h=1.3% p=29.5hPa 404.001 MHz Type=RS41-SGP ser=S4440286 Radiosonde
EB4FMT-14S44402862022-12-06 13:00:2643.4862-7.870352002223693Clb=4.3m/s t=-61.4C h=1.3% p=29.9hPa 404.001 MHz Type=RS41-SGP ser=S4440286 Radiosonde auto_rx v1.5.9
EA4EKH-11S44402862022-12-06 12:59:4243.4867-7.869912262223643Clb=4.1m/s t=-61.0C h=1.3% p=30.1hPa 404.001 MHz Type=RS41-SGP ser=S4440286 Radiosonde
EB4FMT-14S44402862022-12-06 12:59:2243.4872-7.86961942423607Clb=4.1m/s t=-60.7C h=1.2% p=30.3hPa 404.001 MHz Type=RS41-SGP ser=S4440286 Radiosonde auto_rx v1.5.9
EA4EKH-11S44402862022-12-06 12:58:3743.4891-7.868641923023466Clb=5.0m/s t=-60.6C h=1.2% p=31.0hPa 404.001 MHz Type=RS41-SGP ser=S4440286 Radiosonde
EB4FMT-14S44402862022-12-06 12:58:1743.4891-7.868641923023466Clb=5.0m/s t=-60.6C h=1.2% p=31.0hPa 404.001 MHz Type=RS41-SGP ser=S4440286 Radiosonde auto_rx v1.5.9
EA4EKH-11S44402862022-12-06 12:57:3243.4903-7.868391812223363Clb=4.2m/s t=-60.4C h=1.3% p=31.5hPa 404.001 MHz Type=RS41-SGP ser=S4440286 Radiosonde
EB4FMT-14S44402862022-12-06 12:57:1643.4907-7.868391881123326Clb=4.5m/s t=-60.7C h=1.2% p=31.7hPa 404.001 MHz Type=RS41-SGP ser=S4440286 Radiosonde auto_rx v1.5.9
EA4EKH-11S44402862022-12-06 12:56:3643.4919-7.86841723123220Clb=5.2m/s t=-60.7C h=1.2% p=32.2hPa 404.001 MHz Type=RS41-SGP ser=S4440286 Radiosonde
EB4FMT-14S44402862022-12-06 12:56:2343.4925-7.868451842823186Clb=5.2m/s t=-60.9C h=1.3% p=32.4hPa 404.001 MHz Type=RS41-SGP ser=S4440286 Radiosonde auto_rx v1.5.9
EA4EKH-11S44402862022-12-06 12:55:4243.4946-7.868831703723080Clb=4.6m/s t=-60.8C h=1.3% p=33.0hPa 404.001 MHz Type=RS41-SGP ser=S4440286 Radiosonde
EB4FMT-14S44402862022-12-06 12:55:3043.4952-7.868961703123048Clb=4.8m/s t=-60.9C h=1.3% p=33.2hPa 404.001 MHz Type=RS41-SGP ser=S4440286 Radiosonde auto_rx v1.5.9
EA4EKH-11S44402862022-12-06 12:54:4343.4972-7.868871933022937Clb=5.1m/s t=-273.0C h=-1.0% p=33.8hPa 404.001 MHz Type=RS41-SGP ser=S4440286 Radiosonde
EB4FMT-14S44402862022-12-06 12:54:3443.4975-7.868711952822914Clb=4.1m/s t=-60.2C h=1.3% p=33.9hPa 404.001 MHz Type=RS41-SGP ser=S4440286 Radiosonde auto_rx v1.5.9
EA4EKH-11S44402862022-12-06 12:53:5043.499-7.868092112022798Clb=4.7m/s t=-273.0C h=-1.0% p=34.5hPa 404.001 MHz Type=RS41-SGP ser=S4440286 Radiosonde
EB4FMT-14S44402862022-12-06 12:53:4243.4991-7.867922401322780Clb=3.7m/s t=-59.5C h=1.2% p=34.6hPa 404.001 MHz Type=RS41-SGP ser=S4440286 Radiosonde auto_rx v1.5.9
EA4EKH-11S44402862022-12-06 12:52:5543.4997-7.86713195922660Clb=4.0m/s t=-273.0C h=-1.0% p=-1.0hPa 404.001 MHz Type=RS41-SGP ser=S4440286 Radiosonde
EB4FMT-14S44402862022-12-06 12:52:5043.4998-7.8671192222642Clb=4.4m/s t=-60.6C h=1.3% p=35.4hPa 404.001 MHz Type=RS41-SGP ser=S4440286 Radiosonde auto_rx v1.5.9
EA4EKH-11S44402862022-12-06 12:51:4843.5001-7.86712275622521Clb=3.8m/s t=-273.0C h=-1.0% p=-1.0hPa 404.001 MHz Type=RS41-SGP ser=S4440286 Radiosonde
EB4FMT-14S44402862022-12-06 12:51:4543.5004-7.86712162722476Clb=4.8m/s t=-60.7C h=1.3% p=36.4hPa 404.001 MHz Type=RS41-SGP ser=S4440286 Radiosonde auto_rx v1.5.9
EB4FMT-14S44402862022-12-06 12:50:5143.5007-7.866752431322382Clb=3.8m/s t=-61.0C h=1.4% p=36.9hPa 404.001 MHz Type=RS41-SGP ser=S4440286 Radiosonde auto_rx v1.5.9
EB4FMT-14S44402862022-12-06 12:49:4943.5009-7.866841261722264Clb=3.6m/s t=-61.3C h=1.4% p=37.6hPa 404.001 MHz Type=RS41-SGP ser=S4440286 Radiosonde auto_rx v1.5.9
EB4FMT-14S44402862022-12-06 12:48:4543.5012-7.86746136222134Clb=4.6m/s t=-61.0C h=1.3% p=38.4hPa 404.001 MHz Type=RS41-SGP ser=S4440286 Radiosonde auto_rx v1.5.9
EB4FMT-14S44402862022-12-06 12:47:4243.5012-7.86696279921992Clb=4.7m/s t=-60.8C h=1.4% p=39.3hPa 404.001 MHz Type=RS41-SGP ser=S4440286 Radiosonde auto_rx v1.5.9
EB4FMT-14S44402862022-12-06 12:46:4443.501-7.865422471521825Clb=4.4m/s t=-60.5C h=1.3% p=40.4hPa 404.001 MHz Type=RS41-SGP ser=S4440286 Radiosonde auto_rx v1.5.9
EB4FMT-14S44402862022-12-06 12:45:4843.5013-7.864622271121754Clb=4.9m/s t=-60.8C h=1.4% p=40.8hPa 404.001 MHz Type=RS41-SGP ser=S4440286 Radiosonde auto_rx v1.5.9
EB4FMT-14S44402862022-12-06 12:44:4443.502-7.863112111121597Clb=3.5m/s t=-60.9C h=1.5% p=41.9hPa 404.001 MHz Type=RS41-SGP ser=S4440286 Radiosonde auto_rx v1.5.9
EB4FMT-14S44402862022-12-06 12:43:5943.5032-7.861632012221454Clb=3.6m/s t=-61.4C h=1.5% p=42.8hPa 404.001 MHz Type=RS41-SGP ser=S4440286 Radiosonde auto_rx v1.5.9
EB4FMT-14S44402862022-12-06 12:43:5143.5048-7.860411923021332Clb=4.7m/s t=-62.0C h=1.5% p=43.7hPa 404.001 MHz Type=RS41-SGP ser=S4440286 Radiosonde auto_rx v1.5.9
EB4FMT-14S44402862022-12-06 12:43:4943.5064-7.859692082021219Clb=5.0m/s t=-61.8C h=1.5% p=44.5hPa 404.001 MHz Type=RS41-SGP ser=S4440286 Radiosonde auto_rx v1.5.9
EB4FMT-14S44402862022-12-06 12:43:4143.508-7.858592012421088Clb=4.5m/s t=-61.3C h=1.5% p=45.4hPa 404.001 MHz Type=RS41-SGP ser=S4440286 Radiosonde auto_rx v1.5.9
EB4FMT-14S44402862022-12-06 12:43:2343.5095-7.857782001520964Clb=4.0m/s t=-61.3C h=1.5% p=46.4hPa 404.001 MHz Type=RS41-SGP ser=S4440286 Radiosonde auto_rx v1.5.9
EB4FMT-14S44402862022-12-06 12:42:5843.5107-7.857431781920835Clb=4.9m/s t=-61.7C h=1.5% p=47.3hPa 404.001 MHz Type=RS41-SGP ser=S4440286 Radiosonde auto_rx v1.5.9
EB4FMT-14S44402862022-12-06 12:42:0643.5124-7.857581922420706Clb=4.0m/s t=-62.0C h=1.5% p=48.3hPa 404.001 MHz Type=RS41-SGP ser=S4440286 Radiosonde auto_rx v1.5.9
EB4FMT-14S44402862022-12-06 12:41:5743.514-7.857181952820583Clb=4.0m/s t=-62.0C h=1.5% p=49.3hPa 404.001 MHz Type=RS41-SGP ser=S4440286 Radiosonde auto_rx v1.5.9
EB4FMT-14S44402862022-12-06 12:41:5343.5163-7.856941803020451Clb=3.9m/s t=-61.5C h=1.6% p=50.4hPa 404.001 MHz Type=RS41-SGP ser=S4440286 Radiosonde auto_rx v1.5.9
EB4FMT-14S44402862022-12-06 12:41:5143.5185-7.857861623720317Clb=4.5m/s t=-60.3C h=1.4% p=51.5hPa 404.001 MHz Type=RS41-SGP ser=S4440286 Radiosonde auto_rx v1.5.9
EB4FMT-14S44402862022-12-06 12:41:4943.5202-7.859181441920197Clb=4.1m/s t=-61.5C h=1.5% p=52.5hPa 404.001 MHz Type=RS41-SGP ser=S4440286 Radiosonde auto_rx v1.5.9
EB4FMT-14S44402862022-12-06 12:41:4643.5208-7.860091421120069Clb=3.8m/s t=-62.0C h=1.7% p=53.6hPa 404.001 MHz Type=RS41-SGP ser=S4440286 Radiosonde auto_rx v1.5.9
EB4FMT-14S44402862022-12-06 12:41:4043.5218-7.860981482419952Clb=4.1m/s t=-61.6C h=1.6% p=54.6hPa 404.001 MHz Type=RS41-SGP ser=S4440286 Radiosonde auto_rx v1.5.9
EB4FMT-14S44402862022-12-06 12:41:0743.5232-7.861711632219820Clb=4.0m/s t=-61.4C h=1.6% p=55.8hPa 404.001 MHz Type=RS41-SGP ser=S4440286 Radiosonde auto_rx v1.5.9
EB4FMT-14S44402862022-12-06 12:40:1443.5249-7.861861712619697Clb=4.8m/s t=-61.4C h=1.6% p=56.9hPa 404.001 MHz Type=RS41-SGP ser=S4440286 Radiosonde auto_rx v1.5.9
EB4FMT-14S44402862022-12-06 12:39:0843.5264-7.861761842419575Clb=3.6m/s t=-60.8C h=1.6% p=58.0hPa 404.001 MHz Type=RS41-SGP ser=S4440286 Radiosonde auto_rx v1.5.9
EB4FMT-14S44402862022-12-06 12:38:0243.5282-7.861721582419443Clb=5.1m/s t=-60.6C h=1.6% p=59.2hPa 404.001 MHz Type=RS41-SGP ser=S4440286 Radiosonde auto_rx v1.5.9
EB4FMT-14S44402862022-12-06 12:36:5143.5298-7.863191332619310Clb=4.6m/s t=-59.9C h=1.5% p=60.5hPa 404.001 MHz Type=RS41-SGP ser=S4440286 Radiosonde auto_rx v1.5.9
EB4FMT-14S44402862022-12-06 12:35:4643.5308-7.86579983519180Clb=3.5m/s t=-60.0C h=1.6% p=61.8hPa 404.001 MHz Type=RS41-SGP ser=S4440286 Radiosonde auto_rx v1.5.9
EB4FMT-14S44402862022-12-06 12:34:2243.5307-7.86862632819058Clb=3.6m/s t=-61.3C h=1.7% p=63.0hPa 404.001 MHz Type=RS41-SGP ser=S4440286 Radiosonde auto_rx v1.5.9
EB4FMT-14S44402862022-12-06 12:33:1043.53-7.87079461918927Clb=3.5m/s t=-61.3C h=1.8% p=64.4hPa 404.001 MHz Type=RS41-SGP ser=S4440286 Radiosonde auto_rx v1.5.9
EB4FMT-14S44402862022-12-06 12:31:5943.5243-7.90955904416365Clb=4.5m/s t=-62.4C h=2.7% p=97.2hPa 404.001 MHz Type=RS41-SGP ser=S4440286 Radiosonde auto_rx v1.5.9
EB4FMT-14S44402862022-12-06 12:30:4843.5238-7.91409664316249Clb=4.5m/s t=-63.0C h=2.8% p=99.1hPa 404.001 MHz Type=RS41-SGP ser=S4440286 Radiosonde auto_rx v1.5.9
EB4FMT-14S44402862022-12-06 12:29:3743.5225-7.91753663916136Clb=4.2m/s t=-63.5C h=2.7% p=100.9hPa 404.001 MHz Type=RS41-SGP ser=S4440286 Radiosonde auto_rx v1.5.9
EB4FMT-14S44402862022-12-06 12:28:3043.5214-7.92112693116025Clb=3.3m/s t=-63.4C h=2.7% p=102.8hPa 404.001 MHz Type=RS41-SGP ser=S4440286 Radiosonde auto_rx v1.5.9
EB4FMT-14S44402862022-12-06 12:27:2243.5204-7.92419673115912Clb=3.9m/s t=-62.7C h=2.6% p=104.7hPa 404.001 MHz Type=RS41-SGP ser=S4440286 Radiosonde auto_rx v1.5.9
EB4FMT-14S44402862022-12-06 12:26:2043.5198-7.92704712415794Clb=4.6m/s t=-61.9C h=2.3% p=106.7hPa 404.001 MHz Type=RS41-SGP ser=S4440286 Radiosonde auto_rx v1.5.9
EB4FMT-14S44402862022-12-06 12:25:1343.5193-7.92962772215673Clb=4.8m/s t=-60.8C h=2.2% p=108.8hPa 404.001 MHz Type=RS41-SGP ser=S4440286 Radiosonde auto_rx v1.5.9
EB4FMT-14S44402862022-12-06 12:23:5843.5188-7.93288942815553Clb=3.0m/s t=-60.8C h=2.2% p=111.0hPa 404.001 MHz Type=RS41-SGP ser=S4440286 Radiosonde auto_rx v1.5.9
EB4FMT-14S44402862022-12-06 12:22:4743.5184-7.93637913515433Clb=3.6m/s t=-60.7C h=2.2% p=113.1hPa 404.001 MHz Type=RS41-SGP ser=S4440286 Radiosonde auto_rx v1.5.9
EB4FMT-14S44402862022-12-06 12:21:3343.5178-7.94038804415315Clb=3.8m/s t=-60.1C h=2.1% p=115.3hPa 404.001 MHz Type=RS41-SGP ser=S4440286 Radiosonde auto_rx v1.5.9
EB4FMT-14S44402862022-12-06 12:20:0443.5169-7.94473754415202Clb=4.0m/s t=-59.6C h=2.0% p=117.3hPa 404.001 MHz Type=RS41-SGP ser=S4440286 Radiosonde auto_rx v1.5.9
EB4FMT-14S44402862022-12-06 12:18:2943.5159-7.94907764615091Clb=3.7m/s t=-59.3C h=2.0% p=119.5hPa 404.001 MHz Type=RS41-SGP ser=S4440286 Radiosonde auto_rx v1.5.9
EB4FMT-14S44402862022-12-06 12:17:1943.5149-7.95314623914980Clb=2.4m/s t=-59.3C h=2.0% p=121.6hPa 404.001 MHz Type=RS41-SGP ser=S4440286 Radiosonde auto_rx v1.5.9
EB4FMT-14S44402862022-12-06 12:16:1643.5139-7.9566813514871Clb=4.0m/s t=-59.1C h=2.0% p=123.7hPa 404.001 MHz Type=RS41-SGP ser=S4440286 Radiosonde auto_rx v1.5.9
EB4FMT-14S44402862022-12-06 12:15:5843.5135-7.96085784414758Clb=3.0m/s t=-59.1C h=2.0% p=126.0hPa 404.001 MHz Type=RS41-SGP ser=S4440286 Radiosonde auto_rx v1.5.9
EB4FMT-14S44402862022-12-06 12:15:5543.5124-7.96605614814637Clb=3.4m/s t=-59.4C h=2.2% p=128.4hPa 404.001 MHz Type=RS41-SGP ser=S4440286 Radiosonde auto_rx v1.5.9
EB4FMT-14S44402862022-12-06 12:15:5243.5109-7.97071744614521Clb=4.2m/s t=-59.2C h=2.2% p=130.9hPa 404.001 MHz Type=RS41-SGP ser=S4440286 Radiosonde auto_rx v1.5.9
EB4FMT-14S44402862022-12-06 12:15:4943.5097-7.97579715014402Clb=3.2m/s t=-58.9C h=2.1% p=133.4hPa 404.001 MHz Type=RS41-SGP ser=S4440286 Radiosonde auto_rx v1.5.9
EB4FMT-14S44402862022-12-06 12:15:4643.5083-7.98151705414282Clb=4.7m/s t=-58.7C h=2.2% p=135.9hPa 404.001 MHz Type=RS41-SGP ser=S4440286 Radiosonde auto_rx v1.5.9
EB4FMT-14S44402862022-12-06 12:15:2943.5066-7.98685605014164Clb=4.4m/s t=-58.2C h=2.0% p=138.5hPa 404.001 MHz Type=RS41-SGP ser=S4440286 Radiosonde auto_rx v1.5.9
EB4FMT-14S44402862022-12-06 12:15:0243.5048-7.99175605414050Clb=3.4m/s t=-58.2C h=2.1% p=141.0hPa 404.001 MHz Type=RS41-SGP ser=S4440286 Radiosonde auto_rx v1.5.9
EB4FMT-14S44402862022-12-06 12:14:0543.5028-7.99599604413941Clb=3.6m/s t=-57.6C h=2.0% p=143.5hPa 404.001 MHz Type=RS41-SGP ser=S4440286 Radiosonde auto_rx v1.5.9
EB4FMT-14S44402862022-12-06 12:13:0343.5011-8.00073665413831Clb=3.8m/s t=-57.3C h=2.0% p=146.0hPa 404.001 MHz Type=RS41-SGP ser=S4440286 Radiosonde auto_rx v1.5.9
EB4FMT-14S44402862022-12-06 12:11:5343.4997-8.00565684613724Clb=2.4m/s t=-56.8C h=2.0% p=148.5hPa 404.001 MHz Type=RS41-SGP ser=S4440286 Radiosonde auto_rx v1.5.9
EB4FMT-14S44402862022-12-06 12:10:4343.4985-8.01021665213619Clb=2.8m/s t=-56.7C h=2.0% p=151.0hPa 404.001 MHz Type=RS41-SGP ser=S4440286 Radiosonde auto_rx v1.5.9
EB4FMT-14S44402862022-12-06 12:10:0343.4693-8.13865736511173Clb=3.9m/s t=-60.1C h=24.2% p=222.4hPa 404.001 MHz Type=RS41-SGP ser=S4440286 Radiosonde auto_rx v1.5.9
EB4FMT-14S44402862022-12-06 12:08:4543.4674-8.14544656911062Clb=3.4m/s t=-59.9C h=23.4% p=226.4hPa 404.001 MHz Type=RS41-SGP ser=S4440286 Radiosonde auto_rx v1.5.9
EB4FMT-14S44402862022-12-06 12:07:2243.4653-8.15173636110953Clb=3.4m/s t=-59.2C h=21.0% p=230.4hPa 404.001 MHz Type=RS41-SGP ser=S4440286 Radiosonde auto_rx v1.5.9
EB4FMT-14S44402862022-12-06 12:06:1743.4634-8.15729666110844Clb=3.9m/s t=-58.4C h=20.3% p=234.4hPa 404.001 MHz Type=RS41-SGP ser=S4440286 Radiosonde auto_rx v1.5.9
EB4FMT-14S44402862022-12-06 12:05:0243.462-8.16324746310734Clb=3.3m/s t=-57.9C h=22.8% p=238.6hPa 404.001 MHz Type=RS41-SGP ser=S4440286 Radiosonde auto_rx v1.5.9
EB4FMT-14S44402862022-12-06 12:03:4643.4606-8.16976706310631Clb=3.9m/s t=-57.8C h=25.8% p=242.4hPa 404.001 MHz Type=RS41-SGP ser=S4440286 Radiosonde auto_rx v1.5.9
EB4FMT-14S44402862022-12-06 12:02:3843.4592-8.17489685210531Clb=3.1m/s t=-57.1C h=24.7% p=246.4hPa 404.001 MHz Type=RS41-SGP ser=S4440286 Radiosonde auto_rx v1.5.9
EB4FMT-14S44402862022-12-06 12:01:3443.4576-8.17986635410427Clb=3.0m/s t=-56.5C h=24.4% p=250.4hPa 404.001 MHz Type=RS41-SGP ser=S4440286 Radiosonde auto_rx v1.5.9
EB4FMT-14S44402862022-12-06 12:00:3143.4561-8.18448685010313Clb=4.3m/s t=-55.7C h=23.6% p=254.9hPa 404.001 MHz Type=RS41-SGP ser=S4440286 Radiosonde auto_rx v1.5.9
EB4FMT-14S44402862022-12-06 11:59:1243.4548-8.18957685010199Clb=3.6m/s t=-55.1C h=25.0% p=259.5hPa 404.001 MHz Type=RS41-SGP ser=S4440286 Radiosonde auto_rx v1.5.9
EB4FMT-14S44402862022-12-06 11:57:4943.4538-8.1947755410090Clb=3.9m/s t=-54.4C h=23.7% p=263.9hPa 404.001 MHz Type=RS41-SGP ser=S4440286 Radiosonde auto_rx v1.5.9
EB4FMT-14S44402862022-12-06 11:56:4443.4527-8.2003574569975Clb=3.4m/s t=-53.4C h=23.0% p=268.7hPa 404.001 MHz Type=RS41-SGP ser=S4440286 Radiosonde auto_rx v1.5.9
EB4FMT-14S44402862022-12-06 11:55:4243.4516-8.2060575529861Clb=3.7m/s t=-52.7C h=23.3% p=273.5hPa 404.001 MHz Type=RS41-SGP ser=S4440286 Radiosonde auto_rx v1.5.9
EB4FMT-14S44402862022-12-06 11:54:3043.4505-8.2114873549752Clb=3.8m/s t=-51.9C h=23.8% p=278.2hPa 404.001 MHz Type=RS41-SGP ser=S4440286 Radiosonde auto_rx v1.5.9
EB4FMT-14S44402862022-12-06 11:53:1743.4493-8.216776529644Clb=3.4m/s t=-51.0C h=23.3% p=282.8hPa 404.001 MHz Type=RS41-SGP ser=S4440286 Radiosonde auto_rx v1.5.9
EB4FMT-14S44402862022-12-06 11:52:0043.448-8.2214965489540Clb=3.9m/s t=-50.3C h=23.7% p=287.4hPa 404.001 MHz Type=RS41-SGP ser=S4440286 Radiosonde auto_rx v1.5.9
EB4FMT-14S44402862022-12-06 11:51:4143.4465-8.2264970489425Clb=4.0m/s t=-49.1C h=21.6% p=292.4hPa 404.001 MHz Type=RS41-SGP ser=S4440286 Radiosonde auto_rx v1.5.9
EB4FMT-14S44402862022-12-06 11:51:0043.4452-8.2314967529314Clb=4.4m/s t=-48.2C h=20.0% p=297.5hPa 404.001 MHz Type=RS41-SGP ser=S4440286 Radiosonde auto_rx v1.5.9
EB4FMT-14S44402862022-12-06 11:50:4343.4437-8.2362265509199Clb=4.5m/s t=-47.2C h=19.7% p=302.7hPa 404.001 MHz Type=RS41-SGP ser=S4440286 Radiosonde auto_rx v1.5.9
EB4FMT-14S44402862022-12-06 11:50:0643.4422-8.2407164549089Clb=4.2m/s t=-46.3C h=19.4% p=307.7hPa 404.001 MHz Type=RS41-SGP ser=S4440286 Radiosonde auto_rx v1.5.9
EB4FMT-14S44402862022-12-06 11:49:5643.4406-8.2456970488973Clb=3.7m/s t=-45.2C h=18.1% p=313.2hPa 404.001 MHz Type=RS41-SGP ser=S4440286 Radiosonde auto_rx v1.5.9
EB4FMT-14S44402862022-12-06 11:49:4743.4389-8.2503667528859Clb=3.4m/s t=-44.2C h=17.9% p=318.5hPa 404.001 MHz Type=RS41-SGP ser=S4440286 Radiosonde auto_rx v1.5.9
EB4FMT-14S44402862022-12-06 11:49:2243.4372-8.2552970548749Clb=3.7m/s t=-43.2C h=17.0% p=323.8hPa 404.001 MHz Type=RS41-SGP ser=S4440286 Radiosonde auto_rx v1.5.9
EB4FMT-14S44402862022-12-06 11:48:5743.4357-8.2602464528641Clb=4.4m/s t=-42.4C h=16.3% p=329.0hPa 404.001 MHz Type=RS41-SGP ser=S4440286 Radiosonde auto_rx v1.5.9
EB4FMT-14S44402862022-12-06 11:48:4943.4342-8.2650464508531Clb=4.0m/s t=-41.4C h=15.4% p=334.4hPa 404.001 MHz Type=RS41-SGP ser=S4440286 Radiosonde auto_rx v1.5.9
EB4FMT-14S44402862022-12-06 11:48:4743.4326-8.2696267488422Clb=3.5m/s t=-40.4C h=15.9% p=339.8hPa 404.001 MHz Type=RS41-SGP ser=S4440286 Radiosonde auto_rx v1.5.9
EB4FMT-14S44402862022-12-06 11:48:4443.4311-8.2743567508314Clb=3.8m/s t=-39.5C h=15.9% p=345.2hPa 404.001 MHz Type=RS41-SGP ser=S4440286 Radiosonde auto_rx v1.5.9
EB4FMT-14S44402862022-12-06 11:48:4243.4296-8.2791968488206Clb=4.5m/s t=-38.6C h=14.9% p=350.7hPa 404.001 MHz Type=RS41-SGP ser=S4440286 Radiosonde auto_rx v1.5.9
EB4FMT-14S44402862022-12-06 11:48:4043.4282-8.284168528095Clb=4.0m/s t=-37.5C h=13.5% p=356.3hPa 404.001 MHz Type=RS41-SGP ser=S4440286 Radiosonde auto_rx v1.5.9
EB4FMT-14S44402862022-12-06 11:48:3843.4269-8.2888572507982Clb=3.6m/s t=-36.7C h=10.7% p=362.2hPa 404.001 MHz Type=RS41-SGP ser=S4440286 Radiosonde auto_rx v1.5.9
EB4FMT-14S44402862022-12-06 11:48:3543.4256-8.2935671507870Clb=3.3m/s t=-35.8C h=10.3% p=368.2hPa 404.001 MHz Type=RS41-SGP ser=S4440286 Radiosonde auto_rx v1.5.9
EB4FMT-14S44402862022-12-06 11:47:5243.4244-8.2981272437756Clb=4.6m/s t=-35.1C h=13.5% p=374.3hPa 404.001 MHz Type=RS41-SGP ser=S4440286 Radiosonde auto_rx v1.5.9
EB4FMT-14S44402862022-12-06 11:46:4843.4238-8.3021877417643Clb=3.3m/s t=-34.0C h=13.0% p=380.4hPa 404.001 MHz Type=RS41-SGP ser=S4440286 Radiosonde auto_rx v1.5.9
EB4FMT-14S44402862022-12-06 11:45:5243.4231-8.3060178377534Clb=3.0m/s t=-33.4C h=15.7% p=386.4hPa 404.001 MHz Type=RS41-SGP ser=S4440286 Radiosonde auto_rx v1.5.9
EB4FMT-14S44402862022-12-06 11:44:5343.4226-8.3096482337427Clb=4.0m/s t=-32.5C h=16.1% p=392.4hPa 404.001 MHz Type=RS41-SGP ser=S4440286 Radiosonde auto_rx v1.5.9
EB4FMT-14S44402862022-12-06 11:43:5343.4222-8.313396337310Clb=6.2m/s t=-31.6C h=16.0% p=398.9hPa 404.001 MHz Type=RS41-SGP ser=S4440286 Radiosonde auto_rx v1.5.9
EB4FMT-14S44402862022-12-06 11:42:5343.4221-8.317290377193Clb=4.3m/s t=-30.5C h=12.9% p=405.5hPa 404.001 MHz Type=RS41-SGP ser=S4440286 Radiosonde auto_rx v1.5.9
EB4FMT-14S44402862022-12-06 11:41:4943.4218-8.3212185377074Clb=3.9m/s t=-29.5C h=10.4% p=412.3hPa 404.001 MHz Type=RS41-SGP ser=S4440286 Radiosonde auto_rx v1.5.9
EB4FMT-14S44402862022-12-06 11:40:5143.4212-8.3253377376960Clb=4.0m/s t=-28.5C h=9.6% p=418.9hPa 404.001 MHz Type=RS41-SGP ser=S4440286 Radiosonde auto_rx v1.5.9
EB4FMT-14S44402862022-12-06 11:40:0043.4204-8.3292572416856Clb=2.8m/s t=-27.9C h=9.4% p=425.1hPa 404.001 MHz Type=RS41-SGP ser=S4440286 Radiosonde auto_rx v1.5.9
EB4FMT-14S44402862022-12-06 11:39:3243.4192-8.3326661376748Clb=3.9m/s t=-27.9C h=15.8% p=431.5hPa 404.001 MHz Type=RS41-SGP ser=S4440286 Radiosonde auto_rx v1.5.9
EB4FMT-14S44402862022-12-06 11:39:0043.4177-8.3363861466639Clb=4.3m/s t=-27.7C h=28.1% p=438.1hPa 404.001 MHz Type=RS41-SGP ser=S4440286 Radiosonde auto_rx v1.5.9
EB4FMT-14S44402862022-12-06 11:38:3043.416-8.3402955416532Clb=4.3m/s t=-26.9C h=29.2% p=444.6hPa 404.001 MHz Type=RS41-SGP ser=S4440286 Radiosonde auto_rx v1.5.9
EB4FMT-14S44402862022-12-06 11:38:0043.4145-8.343757396419Clb=3.4m/s t=-25.8C h=26.2% p=451.7hPa 404.001 MHz Type=RS41-SGP ser=S4440286 Radiosonde auto_rx v1.5.9
EB4FMT-14S44402862022-12-06 11:37:3243.4129-8.3471160376308Clb=3.9m/s t=-24.7C h=22.3% p=458.6hPa 404.001 MHz Type=RS41-SGP ser=S4440286 Radiosonde auto_rx v1.5.9
EB4FMT-14S44402862022-12-06 11:37:0043.4116-8.3504963356203Clb=3.6m/s t=-23.7C h=15.9% p=465.3hPa 404.001 MHz Type=RS41-SGP ser=S4440286 Radiosonde auto_rx v1.5.9
EB4FMT-14S44402862022-12-06 11:36:3043.4104-8.3539166336098Clb=3.2m/s t=-22.8C h=21.2% p=472.0hPa 404.001 MHz Type=RS41-SGP ser=S4440286 Radiosonde auto_rx v1.5.9
EB4FMT-14S44402862022-12-06 11:36:2843.4093-8.3574671395995Clb=4.2m/s t=-21.9C h=13.5% p=478.6hPa 404.001 MHz Type=RS41-SGP ser=S4440286 Radiosonde auto_rx v1.5.9
EB4FMT-14S44402862022-12-06 11:36:2643.4081-8.3610967375880Clb=5.1m/s t=-20.9C h=16.8% p=486.2hPa 404.001 MHz Type=RS41-SGP ser=S4440286 Radiosonde auto_rx v1.5.9
EB4FMT-14S44402862022-12-06 11:36:2343.4071-8.3646866335746Clb=3.9m/s t=-19.7C h=11.3% p=495.1hPa 404.001 MHz Type=RS41-SGP ser=S4440286 Radiosonde auto_rx v1.5.9
EB4FMT-14S44402862022-12-06 11:36:1743.4061-8.3680276315619Clb=5.2m/s t=-18.7C h=19.4% p=503.6hPa 404.001 MHz Type=RS41-SGP ser=S4440286 Radiosonde auto_rx v1.5.9
EB4FMT-14S44402862022-12-06 11:35:3943.405-8.3714165375498Clb=4.4m/s t=-17.7C h=14.0% p=511.8hPa 404.001 MHz Type=RS41-SGP ser=S4440286 Radiosonde auto_rx v1.5.9
EB4FMT-14S44402862022-12-06 11:34:4643.4034-8.3747261395382Clb=5.0m/s t=-16.8C h=11.8% p=519.8hPa 404.001 MHz Type=RS41-SGP ser=S4440286 Radiosonde auto_rx v1.5.9
EB4FMT-14S44402862022-12-06 11:33:4943.4019-8.3780862445268Clb=4.4m/s t=-16.0C h=4.1% p=527.8hPa 404.001 MHz Type=RS41-SGP ser=S4440286 Radiosonde auto_rx v1.5.9
EB4FMT-14S44402862022-12-06 11:32:5643.4004-8.3816253435135Clb=4.0m/s t=-15.0C h=7.3% p=537.1hPa 404.001 MHz Type=RS41-SGP ser=S4440286 Radiosonde auto_rx v1.5.9
EB4FMT-14S44402862022-12-06 11:32:0043.3987-8.3849655415025Clb=4.4m/s t=-13.9C h=9.4% p=544.9hPa 404.001 MHz Type=RS41-SGP ser=S4440286 Radiosonde auto_rx v1.5.9
EB4FMT-14S44402862022-12-06 11:31:3043.3969-8.3881456354909Clb=3.8m/s t=-13.1C h=2.5% p=553.2hPa 404.001 MHz Type=RS41-SGP ser=S4440286 Radiosonde auto_rx v1.5.9
EB4FMT-14S44402862022-12-06 11:31:1343.3955-8.3916565354798Clb=3.9m/s t=-12.3C h=2.9% p=561.4hPa 404.001 MHz Type=RS41-SGP ser=S4440286 Radiosonde auto_rx v1.5.9
EB4FMT-14S44402862022-12-06 11:31:1143.3943-8.3948959334681Clb=3.5m/s t=-12.3C h=7.9% p=570.0hPa 404.001 MHz Type=RS41-SGP ser=S4440286 Radiosonde auto_rx v1.5.9
EB4FMT-14S44402862022-12-06 11:31:0743.3933-8.3980369354570Clb=3.3m/s t=-11.6C h=10.5% p=578.3hPa 404.001 MHz Type=RS41-SGP ser=S4440286 Radiosonde auto_rx v1.5.9
EB4FMT-14S44402862022-12-06 11:30:2643.3923-8.4012563374470Clb=3.7m/s t=-10.6C h=8.4% p=586.1hPa 404.001 MHz Type=RS41-SGP ser=S4440286 Radiosonde auto_rx v1.5.9
EA1JAY-15S44402862022-12-06 11:30:1843.3922-8.4015966334459Clb=4.0m/s 404.000MHz Type=RS41 rdzTTGOsonde
EB4FMT-14S44402862022-12-06 11:29:3943.3914-8.4043865334322Clb=6.9m/s t=-9.4C h=7.6% p=597.3hPa 404.001 MHz Type=RS41-SGP ser=S4440286 Radiosonde auto_rx v1.5.9
EB4FMT-14S44402862022-12-06 11:28:4643.3901-8.4067946244157Clb=5.3m/s t=-7.9C h=6.8% p=610.1hPa 404.001 MHz Type=RS41-SGP ser=S4440286 Radiosonde auto_rx v1.5.9
EB4FMT-14S44402862022-12-06 11:28:0043.3884-8.4084919244010Clb=4.1m/s t=-6.9C h=7.9% p=621.9hPa 404.001 MHz Type=RS41-SGP ser=S4440286 Radiosonde auto_rx v1.5.9
EB4FMT-14S44402862022-12-06 11:27:3043.3868-8.4097426243908Clb=2.9m/s t=-6.1C h=7.5% p=630.2hPa 404.001 MHz Type=RS41-SGP ser=S4440286 Radiosonde auto_rx v1.5.9
EB4FMT-14S44402862022-12-06 11:27:0043.3852-8.4110832243810Clb=3.7m/s t=-5.4C h=5.9% p=638.1hPa 404.001 MHz Type=RS41-SGP ser=S4440286 Radiosonde auto_rx v1.5.9
EB4FMT-14S44402862022-12-06 11:26:3043.3836-8.4126941283705Clb=2.9m/s t=-4.7C h=8.1% p=646.6hPa 404.001 MHz Type=RS41-SGP ser=S4440286 Radiosonde auto_rx v1.5.9
EB4FMT-14S44402862022-12-06 11:26:1943.3819-8.4144840303609Clb=3.9m/s t=-4.2C h=9.2% p=654.6hPa 404.001 MHz Type=RS41-SGP ser=S4440286 Radiosonde auto_rx v1.5.9
EB4FMT-14S44402862022-12-06 11:26:1143.3803-8.4164948303491Clb=4.5m/s t=-3.4C h=7.3% p=664.7hPa 404.001 MHz Type=RS41-SGP ser=S4440286 Radiosonde auto_rx v1.5.9
EB4FMT-14S44402862022-12-06 11:25:2943.3789-8.4189848283389Clb=3.5m/s t=-2.8C h=9.4% p=673.0hPa 404.001 MHz Type=RS41-SGP ser=S4440286 Radiosonde auto_rx v1.5.9
EB4FMT-14S44402862022-12-06 11:24:4343.3775-8.4211747243267Clb=5.4m/s t=-2.0C h=5.9% p=683.5hPa 404.001 MHz Type=RS41-SGP ser=S4440286 Radiosonde auto_rx v1.5.9
EB4FMT-14S44402862022-12-06 11:24:0043.376-8.4235724313099Clb=6.1m/s t=-2.4C h=13.8% p=698.2hPa 404.001 MHz Type=RS41-SGP ser=S4440286 Radiosonde auto_rx v1.5.9
EB4FMT-14S44402862022-12-06 11:23:3043.3736-8.4249819352930Clb=5.3m/s t=-3.0C h=57.7% p=713.4hPa 404.001 MHz Type=RS41-SGP ser=S4440286 Radiosonde auto_rx v1.5.9
EB4FMT-14S44402862022-12-06 11:23:0043.3713-8.4264740282813Clb=7.7m/s t=-3.1C h=64.4% p=723.9hPa 404.001 MHz Type=RS41-SGP ser=S4440286 Radiosonde auto_rx v1.5.9
EB4FMT-14S44402862022-12-06 11:22:3043.3702-8.4275947112647Clb=6.0m/s t=-3.5C h=96.0% p=739.0hPa 404.001 MHz Type=RS41-SGP ser=S4440286 Radiosonde auto_rx v1.5.9
EB4FMT-14S44402862022-12-06 11:22:0043.3696-8.4288983172493Clb=4.7m/s t=-2.1C h=89.3% p=753.9hPa 404.001 MHz Type=RS41-SGP ser=S4440286 Radiosonde auto_rx v1.5.9
EB4FMT-14S44402862022-12-06 11:21:5043.3689-8.4305857152328Clb=5.8m/s t=-0.8C h=86.3% p=769.5hPa 404.001 MHz Type=RS41-SGP ser=S4440286 Radiosonde auto_rx v1.5.9
EB4FMT-14S44402862022-12-06 11:21:1743.3683-8.4318958112164Clb=6.1m/s t=0.3C h=83.1% p=785.3hPa 404.001 MHz Type=RS41-SGP ser=S4440286 Radiosonde auto_rx v1.5.9
EB4FMT-14S44402862022-12-06 11:20:3843.3678-8.4328343152002Clb=6.2m/s t=1.6C h=78.8% p=801.4hPa 404.001 MHz Type=RS41-SGP ser=S4440286 Radiosonde auto_rx v1.5.9
EB4FMT-14S44402862022-12-06 11:20:0043.367-8.4338748191837Clb=5.0m/s t=2.7C h=76.2% p=817.8hPa 404.001 MHz Type=RS41-SGP ser=S4440286 Radiosonde auto_rx v1.5.9
EB4FMT-14S44402862022-12-06 11:19:3043.366-8.4350326191679Clb=6.2m/s t=3.2C h=79.5% p=833.9hPa 404.001 MHz Type=RS41-SGP ser=S4440286 Radiosonde auto_rx v1.5.9
EB4FMT-14S44402862022-12-06 11:19:0043.3648-8.435716191526Clb=5.1m/s t=3.7C h=83.6% p=849.6hPa 404.001 MHz Type=RS41-SGP ser=S4440286 Radiosonde auto_rx v1.5.9
EB4FMT-14S44402862022-12-06 11:18:3043.3638-8.435955371352Clb=5.3m/s t=5.1C h=97.6% p=868.0hPa 404.001 MHz Type=RS41-SGP ser=S4440286 Radiosonde auto_rx v1.5.9
EB4FMT-14S44402862022-12-06 11:18:0043.3637-8.436525161194Clb=5.9m/s t=5.6C h=-1.0% p=884.9hPa 404.001 MHz Type=RS41-SGP ser=S4440286 Radiosonde auto_rx v1.5.9
EB4FMT-14S44402862022-12-06 11:17:3343.3636-8.43696761026Clb=5.2m/s t=-273.0C h=-1.0% p=-1.0hPa 404.001 MHz Type=RS41 ser=S4440286 Radiosonde auto_rx v1.5.9